<?xml version="1.0" encoding="UTF-8" standalone="no" ?>
<gpx xmlns="http://www.topografix.com/GPX/1/1" xmlns:xsi="http://www.w3.org/2001/XMLSchema-instance" xsi:schemaLocation="http://www.topografix.com/GPX/1/1 http://www.topografix.com/GPX/1/1/gpx.xsd" version="1.1" creator="VisuGPX - https://www.visugpx.com">
  <metadata>
    <name>CDS j10</name>
    <desc><![CDATA[Chemin du soleil]]></desc>
  </metadata>
  <trk>
    <name><![CDATA[ACTIVE LOG122315]]></name>
    <trkseg>
      <trkpt lat="44.13445" lon="6.34292">
        <ele>867</ele>
        <time>2011-08-18T10:23:14Z</time>
      </trkpt>
      <trkpt lat="44.13445" lon="6.34291">
        <ele>867</ele>
        <time>2011-08-18T10:23:26Z</time>
      </trkpt>
      <trkpt lat="44.13449" lon="6.34317">
        <ele>868</ele>
        <time>2011-08-18T10:23:37Z</time>
      </trkpt>
      <trkpt lat="44.13452" lon="6.34327">
        <ele>868</ele>
        <time>2011-08-18T10:23:41Z</time>
      </trkpt>
      <trkpt lat="44.13435" lon="6.34363">
        <ele>870</ele>
        <time>2011-08-18T10:23:55Z</time>
      </trkpt>
      <trkpt lat="44.13429" lon="6.34373">
        <ele>870</ele>
        <time>2011-08-18T10:23:59Z</time>
      </trkpt>
      <trkpt lat="44.13395" lon="6.34411">
        <ele>872</ele>
        <time>2011-08-18T10:24:16Z</time>
      </trkpt>
      <trkpt lat="44.13368" lon="6.34442">
        <ele>872</ele>
        <time>2011-08-18T10:24:31Z</time>
      </trkpt>
      <trkpt lat="44.13341" lon="6.34486">
        <ele>872</ele>
        <time>2011-08-18T10:24:41Z</time>
      </trkpt>
      <trkpt lat="44.13315" lon="6.34531">
        <ele>875</ele>
        <time>2011-08-18T10:24:48Z</time>
      </trkpt>
      <trkpt lat="44.13277" lon="6.34539">
        <ele>876</ele>
        <time>2011-08-18T10:24:55Z</time>
      </trkpt>
      <trkpt lat="44.13265" lon="6.34534">
        <ele>876</ele>
        <time>2011-08-18T10:24:57Z</time>
      </trkpt>
      <trkpt lat="44.13254" lon="6.3454">
        <ele>877</ele>
        <time>2011-08-18T10:25:01Z</time>
      </trkpt>
      <trkpt lat="44.13258" lon="6.34572">
        <ele>877</ele>
        <time>2011-08-18T10:25:14Z</time>
      </trkpt>
      <trkpt lat="44.13294" lon="6.34621">
        <ele>882</ele>
        <time>2011-08-18T10:25:36Z</time>
      </trkpt>
      <trkpt lat="44.13319" lon="6.34608">
        <ele>880</ele>
        <time>2011-08-18T10:25:47Z</time>
      </trkpt>
      <trkpt lat="44.13345" lon="6.34587">
        <ele>877</ele>
        <time>2011-08-18T10:26:02Z</time>
      </trkpt>
      <trkpt lat="44.13375" lon="6.34607">
        <ele>880</ele>
        <time>2011-08-18T10:26:19Z</time>
      </trkpt>
      <trkpt lat="44.13389" lon="6.34613">
        <ele>880</ele>
        <time>2011-08-18T10:26:27Z</time>
      </trkpt>
      <trkpt lat="44.13398" lon="6.34618">
        <ele>880</ele>
        <time>2011-08-18T10:26:32Z</time>
      </trkpt>
      <trkpt lat="44.13425" lon="6.3465">
        <ele>880</ele>
        <time>2011-08-18T10:26:52Z</time>
      </trkpt>
      <trkpt lat="44.13435" lon="6.34705">
        <ele>886</ele>
        <time>2011-08-18T10:27:14Z</time>
      </trkpt>
      <trkpt lat="44.13445" lon="6.34747">
        <ele>889</ele>
        <time>2011-08-18T10:27:34Z</time>
      </trkpt>
      <trkpt lat="44.13452" lon="6.34778">
        <ele>897</ele>
        <time>2011-08-18T10:27:53Z</time>
      </trkpt>
      <trkpt lat="44.13455" lon="6.3479">
        <ele>897</ele>
        <time>2011-08-18T10:28:06Z</time>
      </trkpt>
      <trkpt lat="44.1346" lon="6.34805">
        <ele>898</ele>
        <time>2011-08-18T10:28:17Z</time>
      </trkpt>
      <trkpt lat="44.13465" lon="6.34829">
        <ele>898</ele>
        <time>2011-08-18T10:28:35Z</time>
      </trkpt>
      <trkpt lat="44.13468" lon="6.34835">
        <ele>906</ele>
        <time>2011-08-18T10:28:50Z</time>
      </trkpt>
      <trkpt lat="44.13472" lon="6.34847">
        <ele>906</ele>
        <time>2011-08-18T10:29:04Z</time>
      </trkpt>
      <trkpt lat="44.13484" lon="6.34875">
        <ele>908</ele>
        <time>2011-08-18T10:29:19Z</time>
      </trkpt>
      <trkpt lat="44.13493" lon="6.34896">
        <ele>908</ele>
        <time>2011-08-18T10:29:30Z</time>
      </trkpt>
      <trkpt lat="44.13485" lon="6.34913">
        <ele>909</ele>
        <time>2011-08-18T10:29:40Z</time>
      </trkpt>
      <trkpt lat="44.13458" lon="6.34893">
        <ele>911</ele>
        <time>2011-08-18T10:29:58Z</time>
      </trkpt>
      <trkpt lat="44.13433" lon="6.34871">
        <ele>913</ele>
        <time>2011-08-18T10:30:16Z</time>
      </trkpt>
      <trkpt lat="44.13422" lon="6.34863">
        <ele>913</ele>
        <time>2011-08-18T10:30:23Z</time>
      </trkpt>
      <trkpt lat="44.13384" lon="6.34864">
        <ele>919</ele>
        <time>2011-08-18T10:30:46Z</time>
      </trkpt>
      <trkpt lat="44.13376" lon="6.34866">
        <ele>919</ele>
        <time>2011-08-18T10:31:01Z</time>
      </trkpt>
      <trkpt lat="44.1336" lon="6.34885">
        <ele>920</ele>
        <time>2011-08-18T10:31:15Z</time>
      </trkpt>
      <trkpt lat="44.13376" lon="6.34914">
        <ele>921</ele>
        <time>2011-08-18T10:31:31Z</time>
      </trkpt>
      <trkpt lat="44.13397" lon="6.3496">
        <ele>929</ele>
        <time>2011-08-18T10:31:54Z</time>
      </trkpt>
      <trkpt lat="44.13395" lon="6.35">
        <ele>936</ele>
        <time>2011-08-18T10:32:11Z</time>
      </trkpt>
      <trkpt lat="44.13384" lon="6.35038">
        <ele>939</ele>
        <time>2011-08-18T10:32:28Z</time>
      </trkpt>
      <trkpt lat="44.1338" lon="6.35055">
        <ele>940</ele>
        <time>2011-08-18T10:32:35Z</time>
      </trkpt>
      <trkpt lat="44.13378" lon="6.35064">
        <ele>940</ele>
        <time>2011-08-18T10:32:39Z</time>
      </trkpt>
      <trkpt lat="44.13381" lon="6.35109">
        <ele>947</ele>
        <time>2011-08-18T10:32:56Z</time>
      </trkpt>
      <trkpt lat="44.13397" lon="6.35153">
        <ele>947</ele>
        <time>2011-08-18T10:33:11Z</time>
      </trkpt>
      <trkpt lat="44.13421" lon="6.35197">
        <ele>940</ele>
        <time>2011-08-18T10:33:28Z</time>
      </trkpt>
      <trkpt lat="44.13439" lon="6.35247">
        <ele>942</ele>
        <time>2011-08-18T10:33:47Z</time>
      </trkpt>
      <trkpt lat="44.13429" lon="6.35288">
        <ele>943</ele>
        <time>2011-08-18T10:34:02Z</time>
      </trkpt>
      <trkpt lat="44.13403" lon="6.35308">
        <ele>957</ele>
        <time>2011-08-18T10:34:18Z</time>
      </trkpt>
      <trkpt lat="44.13398" lon="6.35311">
        <ele>957</ele>
        <time>2011-08-18T10:34:21Z</time>
      </trkpt>
      <trkpt lat="44.13391" lon="6.35328">
        <ele>957</ele>
        <time>2011-08-18T10:34:28Z</time>
      </trkpt>
      <trkpt lat="44.13386" lon="6.35386">
        <ele>961</ele>
        <time>2011-08-18T10:34:51Z</time>
      </trkpt>
      <trkpt lat="44.13391" lon="6.35419">
        <ele>957</ele>
        <time>2011-08-18T10:35:05Z</time>
      </trkpt>
      <trkpt lat="44.13375" lon="6.35441">
        <ele>959</ele>
        <time>2011-08-18T10:35:21Z</time>
      </trkpt>
      <trkpt lat="44.1334" lon="6.35435">
        <ele>966</ele>
        <time>2011-08-18T10:35:41Z</time>
      </trkpt>
      <trkpt lat="44.13306" lon="6.35445">
        <ele>976</ele>
        <time>2011-08-18T10:36:00Z</time>
      </trkpt>
      <trkpt lat="44.13271" lon="6.35458">
        <ele>979</ele>
        <time>2011-08-18T10:36:21Z</time>
      </trkpt>
      <trkpt lat="44.13246" lon="6.35439">
        <ele>989</ele>
        <time>2011-08-18T10:36:37Z</time>
      </trkpt>
      <trkpt lat="44.13226" lon="6.35415">
        <ele>986</ele>
        <time>2011-08-18T10:36:53Z</time>
      </trkpt>
      <trkpt lat="44.13184" lon="6.35377">
        <ele>989</ele>
        <time>2011-08-18T10:37:20Z</time>
      </trkpt>
      <trkpt lat="44.13144" lon="6.35368">
        <ele>992</ele>
        <time>2011-08-18T10:37:42Z</time>
      </trkpt>
      <trkpt lat="44.13106" lon="6.3537">
        <ele>993</ele>
        <time>2011-08-18T10:37:58Z</time>
      </trkpt>
      <trkpt lat="44.13077" lon="6.35383">
        <ele>994</ele>
        <time>2011-08-18T10:38:12Z</time>
      </trkpt>
      <trkpt lat="44.1305" lon="6.3543">
        <ele>1002</ele>
        <time>2011-08-18T10:38:29Z</time>
      </trkpt>
      <trkpt lat="44.13022" lon="6.3547">
        <ele>1003</ele>
        <time>2011-08-18T10:38:46Z</time>
      </trkpt>
      <trkpt lat="44.12998" lon="6.35509">
        <ele>1008</ele>
        <time>2011-08-18T10:39:02Z</time>
      </trkpt>
      <trkpt lat="44.12965" lon="6.35525">
        <ele>1012</ele>
        <time>2011-08-18T10:39:18Z</time>
      </trkpt>
      <trkpt lat="44.12948" lon="6.3552">
        <ele>1013</ele>
        <time>2011-08-18T10:39:30Z</time>
      </trkpt>
      <trkpt lat="44.12932" lon="6.35513">
        <ele>1012</ele>
        <time>2011-08-18T10:39:47Z</time>
      </trkpt>
      <trkpt lat="44.12898" lon="6.35484">
        <ele>1013</ele>
        <time>2011-08-18T10:40:04Z</time>
      </trkpt>
      <trkpt lat="44.12871" lon="6.35487">
        <ele>1015</ele>
        <time>2011-08-18T10:40:16Z</time>
      </trkpt>
      <trkpt lat="44.12868" lon="6.35486">
        <ele>1015</ele>
        <time>2011-08-18T10:40:17Z</time>
      </trkpt>
      <trkpt lat="44.12862" lon="6.35462">
        <ele>1015</ele>
        <time>2011-08-18T10:40:24Z</time>
      </trkpt>
      <trkpt lat="44.12868" lon="6.35412">
        <ele>1015</ele>
        <time>2011-08-18T10:40:40Z</time>
      </trkpt>
      <trkpt lat="44.12868" lon="6.35409">
        <ele>1015</ele>
        <time>2011-08-18T10:40:41Z</time>
      </trkpt>
      <trkpt lat="44.12849" lon="6.35366">
        <ele>1016</ele>
        <time>2011-08-18T10:40:59Z</time>
      </trkpt>
      <trkpt lat="44.12825" lon="6.35336">
        <ele>1022</ele>
        <time>2011-08-18T10:41:19Z</time>
      </trkpt>
      <trkpt lat="44.12807" lon="6.3535">
        <ele>1024</ele>
        <time>2011-08-18T10:41:34Z</time>
      </trkpt>
      <trkpt lat="44.128" lon="6.35359">
        <ele>1025</ele>
        <time>2011-08-18T10:41:40Z</time>
      </trkpt>
      <trkpt lat="44.12759" lon="6.3536">
        <ele>1027</ele>
        <time>2011-08-18T10:42:01Z</time>
      </trkpt>
      <trkpt lat="44.12722" lon="6.35341">
        <ele>1029</ele>
        <time>2011-08-18T10:42:22Z</time>
      </trkpt>
      <trkpt lat="44.12718" lon="6.35346">
        <ele>1030</ele>
        <time>2011-08-18T10:42:25Z</time>
      </trkpt>
      <trkpt lat="44.12719" lon="6.35368">
        <ele>1031</ele>
        <time>2011-08-18T10:42:40Z</time>
      </trkpt>
      <trkpt lat="44.12717" lon="6.35393">
        <ele>1033</ele>
        <time>2011-08-18T10:43:01Z</time>
      </trkpt>
      <trkpt lat="44.12713" lon="6.35415">
        <ele>1033</ele>
        <time>2011-08-18T10:43:21Z</time>
      </trkpt>
      <trkpt lat="44.12705" lon="6.35462">
        <ele>1040</ele>
        <time>2011-08-18T10:43:42Z</time>
      </trkpt>
      <trkpt lat="44.12703" lon="6.35503">
        <ele>1043</ele>
        <time>2011-08-18T10:44:03Z</time>
      </trkpt>
      <trkpt lat="44.12677" lon="6.35496">
        <ele>1046</ele>
        <time>2011-08-18T10:44:19Z</time>
      </trkpt>
      <trkpt lat="44.12656" lon="6.35482">
        <ele>1048</ele>
        <time>2011-08-18T10:44:36Z</time>
      </trkpt>
      <trkpt lat="44.1265" lon="6.3549">
        <ele>1049</ele>
        <time>2011-08-18T10:44:41Z</time>
      </trkpt>
      <trkpt lat="44.12643" lon="6.35515">
        <ele>1054</ele>
        <time>2011-08-18T10:44:52Z</time>
      </trkpt>
      <trkpt lat="44.12639" lon="6.35533">
        <ele>1055</ele>
        <time>2011-08-18T10:45:00Z</time>
      </trkpt>
      <trkpt lat="44.12638" lon="6.35537">
        <ele>1055</ele>
        <time>2011-08-18T10:45:02Z</time>
      </trkpt>
      <trkpt lat="44.12626" lon="6.35575">
        <ele>1057</ele>
        <time>2011-08-18T10:45:20Z</time>
      </trkpt>
      <trkpt lat="44.12606" lon="6.35612">
        <ele>1058</ele>
        <time>2011-08-18T10:45:42Z</time>
      </trkpt>
      <trkpt lat="44.12584" lon="6.35633">
        <ele>1059</ele>
        <time>2011-08-18T10:46:01Z</time>
      </trkpt>
      <trkpt lat="44.12555" lon="6.35656">
        <ele>1071</ele>
        <time>2011-08-18T10:46:21Z</time>
      </trkpt>
      <trkpt lat="44.12543" lon="6.35676">
        <ele>1077</ele>
        <time>2011-08-18T10:46:31Z</time>
      </trkpt>
      <trkpt lat="44.12547" lon="6.35711">
        <ele>1078</ele>
        <time>2011-08-18T10:46:44Z</time>
      </trkpt>
      <trkpt lat="44.12573" lon="6.35725">
        <ele>1075</ele>
        <time>2011-08-18T10:46:59Z</time>
      </trkpt>
      <trkpt lat="44.1259" lon="6.35745">
        <ele>1068</ele>
        <time>2011-08-18T10:47:11Z</time>
      </trkpt>
      <trkpt lat="44.12589" lon="6.3576">
        <ele>1069</ele>
        <time>2011-08-18T10:47:16Z</time>
      </trkpt>
      <trkpt lat="44.12573" lon="6.35803">
        <ele>1082</ele>
        <time>2011-08-18T10:47:32Z</time>
      </trkpt>
      <trkpt lat="44.12565" lon="6.35824">
        <ele>1082</ele>
        <time>2011-08-18T10:47:38Z</time>
      </trkpt>
      <trkpt lat="44.12559" lon="6.35843">
        <ele>1085</ele>
        <time>2011-08-18T10:47:44Z</time>
      </trkpt>
      <trkpt lat="44.12564" lon="6.35903">
        <ele>1085</ele>
        <time>2011-08-18T10:47:59Z</time>
      </trkpt>
      <trkpt lat="44.12539" lon="6.35935">
        <ele>1091</ele>
        <time>2011-08-18T10:48:14Z</time>
      </trkpt>
      <trkpt lat="44.12513" lon="6.35977">
        <ele>1093</ele>
        <time>2011-08-18T10:48:30Z</time>
      </trkpt>
      <trkpt lat="44.12517" lon="6.36027">
        <ele>1093</ele>
        <time>2011-08-18T10:48:44Z</time>
      </trkpt>
      <trkpt lat="44.1252" lon="6.36092">
        <ele>1095</ele>
        <time>2011-08-18T10:49:01Z</time>
      </trkpt>
      <trkpt lat="44.12539" lon="6.36131">
        <ele>1094</ele>
        <time>2011-08-18T10:49:14Z</time>
      </trkpt>
      <trkpt lat="44.12546" lon="6.36153">
        <ele>1094</ele>
        <time>2011-08-18T10:49:26Z</time>
      </trkpt>
      <trkpt lat="44.12556" lon="6.36193">
        <ele>1098</ele>
        <time>2011-08-18T10:49:43Z</time>
      </trkpt>
      <trkpt lat="44.12573" lon="6.36249">
        <ele>1096</ele>
        <time>2011-08-18T10:50:08Z</time>
      </trkpt>
      <trkpt lat="44.12572" lon="6.3625">
        <ele>1099</ele>
        <time>2011-08-18T10:50:42Z</time>
      </trkpt>
      <trkpt lat="44.12568" lon="6.36301">
        <ele>1107</ele>
        <time>2011-08-18T10:51:01Z</time>
      </trkpt>
      <trkpt lat="44.12573" lon="6.36344">
        <ele>1107</ele>
        <time>2011-08-18T10:51:18Z</time>
      </trkpt>
      <trkpt lat="44.12577" lon="6.36368">
        <ele>1112</ele>
        <time>2011-08-18T10:51:26Z</time>
      </trkpt>
      <trkpt lat="44.12589" lon="6.36403">
        <ele>1096</ele>
        <time>2011-08-18T10:51:39Z</time>
      </trkpt>
      <trkpt lat="44.12584" lon="6.36417">
        <ele>1106</ele>
        <time>2011-08-18T10:51:44Z</time>
      </trkpt>
      <trkpt lat="44.12557" lon="6.36446">
        <ele>1118</ele>
        <time>2011-08-18T10:51:59Z</time>
      </trkpt>
      <trkpt lat="44.1253" lon="6.36477">
        <ele>1123</ele>
        <time>2011-08-18T10:52:14Z</time>
      </trkpt>
      <trkpt lat="44.12531" lon="6.3649">
        <ele>1123</ele>
        <time>2011-08-18T10:52:18Z</time>
      </trkpt>
      <trkpt lat="44.1255" lon="6.36532">
        <ele>1129</ele>
        <time>2011-08-18T10:52:35Z</time>
      </trkpt>
      <trkpt lat="44.12573" lon="6.36578">
        <ele>1129</ele>
        <time>2011-08-18T10:52:57Z</time>
      </trkpt>
      <trkpt lat="44.12577" lon="6.3659">
        <ele>1132</ele>
        <time>2011-08-18T10:53:02Z</time>
      </trkpt>
      <trkpt lat="44.12585" lon="6.36614">
        <ele>1121</ele>
        <time>2011-08-18T10:53:13Z</time>
      </trkpt>
      <trkpt lat="44.12592" lon="6.36637">
        <ele>1122</ele>
        <time>2011-08-18T10:53:25Z</time>
      </trkpt>
      <trkpt lat="44.12596" lon="6.3665">
        <ele>1124</ele>
        <time>2011-08-18T10:53:31Z</time>
      </trkpt>
      <trkpt lat="44.12594" lon="6.36671">
        <ele>1128</ele>
        <time>2011-08-18T10:53:42Z</time>
      </trkpt>
      <trkpt lat="44.12577" lon="6.3669">
        <ele>1140</ele>
        <time>2011-08-18T10:53:58Z</time>
      </trkpt>
      <trkpt lat="44.12564" lon="6.36705">
        <ele>1141</ele>
        <time>2011-08-18T10:54:09Z</time>
      </trkpt>
      <trkpt lat="44.12563" lon="6.36711">
        <ele>1141</ele>
        <time>2011-08-18T10:54:12Z</time>
      </trkpt>
      <trkpt lat="44.1254" lon="6.36745">
        <ele>1144</ele>
        <time>2011-08-18T10:54:35Z</time>
      </trkpt>
      <trkpt lat="44.12539" lon="6.36744">
        <ele>1144</ele>
        <time>2011-08-18T10:54:52Z</time>
      </trkpt>
      <trkpt lat="44.12533" lon="6.3675">
        <ele>1145</ele>
        <time>2011-08-18T10:59:38Z</time>
      </trkpt>
      <trkpt lat="44.12509" lon="6.3678">
        <ele>1143</ele>
        <time>2011-08-18T10:59:58Z</time>
      </trkpt>
      <trkpt lat="44.12491" lon="6.36795">
        <ele>1160</ele>
        <time>2011-08-18T11:00:14Z</time>
      </trkpt>
      <trkpt lat="44.12464" lon="6.36798">
        <ele>1163</ele>
        <time>2011-08-18T11:00:32Z</time>
      </trkpt>
      <trkpt lat="44.12444" lon="6.36825">
        <ele>1166</ele>
        <time>2011-08-18T11:00:50Z</time>
      </trkpt>
      <trkpt lat="44.12422" lon="6.36843">
        <ele>1168</ele>
        <time>2011-08-18T11:01:07Z</time>
      </trkpt>
      <trkpt lat="44.12414" lon="6.36855">
        <ele>1180</ele>
        <time>2011-08-18T11:01:14Z</time>
      </trkpt>
      <trkpt lat="44.12416" lon="6.36892">
        <ele>1180</ele>
        <time>2011-08-18T11:01:33Z</time>
      </trkpt>
      <trkpt lat="44.12413" lon="6.36948">
        <ele>1182</ele>
        <time>2011-08-18T11:01:57Z</time>
      </trkpt>
      <trkpt lat="44.12404" lon="6.36986">
        <ele>1181</ele>
        <time>2011-08-18T11:02:15Z</time>
      </trkpt>
      <trkpt lat="44.12401" lon="6.36997">
        <ele>1181</ele>
        <time>2011-08-18T11:02:20Z</time>
      </trkpt>
      <trkpt lat="44.12394" lon="6.37048">
        <ele>1188</ele>
        <time>2011-08-18T11:02:44Z</time>
      </trkpt>
      <trkpt lat="44.12388" lon="6.37081">
        <ele>1188</ele>
        <time>2011-08-18T11:02:58Z</time>
      </trkpt>
      <trkpt lat="44.12385" lon="6.37115">
        <ele>1191</ele>
        <time>2011-08-18T11:03:16Z</time>
      </trkpt>
      <trkpt lat="44.12386" lon="6.37119">
        <ele>1191</ele>
        <time>2011-08-18T11:03:18Z</time>
      </trkpt>
      <trkpt lat="44.12384" lon="6.37128">
        <ele>1191</ele>
        <time>2011-08-18T11:03:23Z</time>
      </trkpt>
      <trkpt lat="44.1238" lon="6.37151">
        <ele>1192</ele>
        <time>2011-08-18T11:03:35Z</time>
      </trkpt>
      <trkpt lat="44.12378" lon="6.37175">
        <ele>1189</ele>
        <time>2011-08-18T11:03:45Z</time>
      </trkpt>
      <trkpt lat="44.12361" lon="6.37205">
        <ele>1191</ele>
        <time>2011-08-18T11:04:04Z</time>
      </trkpt>
      <trkpt lat="44.12341" lon="6.37224">
        <ele>1193</ele>
        <time>2011-08-18T11:04:19Z</time>
      </trkpt>
      <trkpt lat="44.1234" lon="6.37227">
        <ele>1193</ele>
        <time>2011-08-18T11:04:21Z</time>
      </trkpt>
      <trkpt lat="44.1232" lon="6.37254">
        <ele>1199</ele>
        <time>2011-08-18T11:04:39Z</time>
      </trkpt>
      <trkpt lat="44.12294" lon="6.37287">
        <ele>1199</ele>
        <time>2011-08-18T11:05:01Z</time>
      </trkpt>
      <trkpt lat="44.12264" lon="6.37303">
        <ele>1201</ele>
        <time>2011-08-18T11:05:19Z</time>
      </trkpt>
      <trkpt lat="44.12253" lon="6.3731">
        <ele>1201</ele>
        <time>2011-08-18T11:05:32Z</time>
      </trkpt>
      <trkpt lat="44.12218" lon="6.37345">
        <ele>1204</ele>
        <time>2011-08-18T11:05:48Z</time>
      </trkpt>
      <trkpt lat="44.12209" lon="6.37352">
        <ele>1205</ele>
        <time>2011-08-18T11:05:50Z</time>
      </trkpt>
      <trkpt lat="44.12186" lon="6.37382">
        <ele>1204</ele>
        <time>2011-08-18T11:05:55Z</time>
      </trkpt>
      <trkpt lat="44.1217" lon="6.37413">
        <ele>1200</ele>
        <time>2011-08-18T11:05:59Z</time>
      </trkpt>
      <trkpt lat="44.12143" lon="6.37419">
        <ele>1192</ele>
        <time>2011-08-18T11:06:04Z</time>
      </trkpt>
      <trkpt lat="44.12126" lon="6.37427">
        <ele>1191</ele>
        <time>2011-08-18T11:06:08Z</time>
      </trkpt>
      <trkpt lat="44.1211" lon="6.37425">
        <ele>1194</ele>
        <time>2011-08-18T11:06:11Z</time>
      </trkpt>
      <trkpt lat="44.12072" lon="6.37439">
        <ele>1213</ele>
        <time>2011-08-18T11:06:17Z</time>
      </trkpt>
      <trkpt lat="44.12007" lon="6.37494">
        <ele>1216</ele>
        <time>2011-08-18T11:06:26Z</time>
      </trkpt>
      <trkpt lat="44.11988" lon="6.37523">
        <ele>1238</ele>
        <time>2011-08-18T11:06:30Z</time>
      </trkpt>
      <trkpt lat="44.11993" lon="6.37554">
        <ele>1239</ele>
        <time>2011-08-18T11:06:37Z</time>
      </trkpt>
      <trkpt lat="44.11994" lon="6.37556">
        <ele>1239</ele>
        <time>2011-08-18T11:06:38Z</time>
      </trkpt>
      <trkpt lat="44.12013" lon="6.37585">
        <ele>1214</ele>
        <time>2011-08-18T11:06:49Z</time>
      </trkpt>
      <trkpt lat="44.12041" lon="6.37622">
        <ele>1203</ele>
        <time>2011-08-18T11:07:02Z</time>
      </trkpt>
      <trkpt lat="44.12059" lon="6.37663">
        <ele>1198</ele>
        <time>2011-08-18T11:07:18Z</time>
      </trkpt>
      <trkpt lat="44.12064" lon="6.37675">
        <ele>1208</ele>
        <time>2011-08-18T11:07:23Z</time>
      </trkpt>
      <trkpt lat="44.12078" lon="6.37707">
        <ele>1214</ele>
        <time>2011-08-18T11:07:38Z</time>
      </trkpt>
      <trkpt lat="44.12088" lon="6.37743">
        <ele>1192</ele>
        <time>2011-08-18T11:07:54Z</time>
      </trkpt>
      <trkpt lat="44.12089" lon="6.37745">
        <ele>1193</ele>
        <time>2011-08-18T11:07:55Z</time>
      </trkpt>
      <trkpt lat="44.12105" lon="6.37789">
        <ele>1190</ele>
        <time>2011-08-18T11:08:15Z</time>
      </trkpt>
      <trkpt lat="44.12107" lon="6.37828">
        <ele>1198</ele>
        <time>2011-08-18T11:08:32Z</time>
      </trkpt>
      <trkpt lat="44.12113" lon="6.37858">
        <ele>1200</ele>
        <time>2011-08-18T11:08:45Z</time>
      </trkpt>
      <trkpt lat="44.12115" lon="6.37867">
        <ele>1199</ele>
        <time>2011-08-18T11:08:49Z</time>
      </trkpt>
      <trkpt lat="44.12122" lon="6.37902">
        <ele>1198</ele>
        <time>2011-08-18T11:09:04Z</time>
      </trkpt>
      <trkpt lat="44.12118" lon="6.3791">
        <ele>1201</ele>
        <time>2011-08-18T11:09:08Z</time>
      </trkpt>
      <trkpt lat="44.12095" lon="6.37943">
        <ele>1209</ele>
        <time>2011-08-18T11:09:30Z</time>
      </trkpt>
      <trkpt lat="44.12073" lon="6.37986">
        <ele>1239</ele>
        <time>2011-08-18T11:09:53Z</time>
      </trkpt>
      <trkpt lat="44.12054" lon="6.3803">
        <ele>1245</ele>
        <time>2011-08-18T11:10:15Z</time>
      </trkpt>
      <trkpt lat="44.12048" lon="6.38049">
        <ele>1247</ele>
        <time>2011-08-18T11:10:24Z</time>
      </trkpt>
      <trkpt lat="44.12053" lon="6.38061">
        <ele>1245</ele>
        <time>2011-08-18T11:10:30Z</time>
      </trkpt>
      <trkpt lat="44.12058" lon="6.38068">
        <ele>1242</ele>
        <time>2011-08-18T11:10:34Z</time>
      </trkpt>
      <trkpt lat="44.12068" lon="6.38108">
        <ele>1236</ele>
        <time>2011-08-18T11:10:52Z</time>
      </trkpt>
      <trkpt lat="44.12047" lon="6.38133">
        <ele>1242</ele>
        <time>2011-08-18T11:11:10Z</time>
      </trkpt>
      <trkpt lat="44.12025" lon="6.38166">
        <ele>1253</ele>
        <time>2011-08-18T11:11:30Z</time>
      </trkpt>
      <trkpt lat="44.12016" lon="6.38205">
        <ele>1240</ele>
        <time>2011-08-18T11:11:48Z</time>
      </trkpt>
      <trkpt lat="44.11997" lon="6.38245">
        <ele>1261</ele>
        <time>2011-08-18T11:12:10Z</time>
      </trkpt>
      <trkpt lat="44.11983" lon="6.38287">
        <ele>1267</ele>
        <time>2011-08-18T11:12:31Z</time>
      </trkpt>
      <trkpt lat="44.11969" lon="6.38323">
        <ele>1267</ele>
        <time>2011-08-18T11:12:52Z</time>
      </trkpt>
      <trkpt lat="44.11952" lon="6.38352">
        <ele>1261</ele>
        <time>2011-08-18T11:13:12Z</time>
      </trkpt>
      <trkpt lat="44.11946" lon="6.38366">
        <ele>1261</ele>
        <time>2011-08-18T11:13:28Z</time>
      </trkpt>
      <trkpt lat="44.11934" lon="6.38402">
        <ele>1262</ele>
        <time>2011-08-18T11:13:55Z</time>
      </trkpt>
      <trkpt lat="44.11916" lon="6.38428">
        <ele>1281</ele>
        <time>2011-08-18T11:14:18Z</time>
      </trkpt>
      <trkpt lat="44.11903" lon="6.38458">
        <ele>1291</ele>
        <time>2011-08-18T11:14:42Z</time>
      </trkpt>
      <trkpt lat="44.11886" lon="6.3849">
        <ele>1293</ele>
        <time>2011-08-18T11:15:11Z</time>
      </trkpt>
      <trkpt lat="44.11881" lon="6.38505">
        <ele>1291</ele>
        <time>2011-08-18T11:15:30Z</time>
      </trkpt>
      <trkpt lat="44.11874" lon="6.38531">
        <ele>1295</ele>
        <time>2011-08-18T11:15:55Z</time>
      </trkpt>
      <trkpt lat="44.11874" lon="6.38548">
        <ele>1295</ele>
        <time>2011-08-18T11:16:05Z</time>
      </trkpt>
      <trkpt lat="44.11874" lon="6.38557">
        <ele>1295</ele>
        <time>2011-08-18T11:16:09Z</time>
      </trkpt>
      <trkpt lat="44.11876" lon="6.3857">
        <ele>1294</ele>
        <time>2011-08-18T11:16:15Z</time>
      </trkpt>
      <trkpt lat="44.11876" lon="6.38583">
        <ele>1294</ele>
        <time>2011-08-18T11:16:21Z</time>
      </trkpt>
      <trkpt lat="44.11876" lon="6.38591">
        <ele>1292</ele>
        <time>2011-08-18T11:16:25Z</time>
      </trkpt>
      <trkpt lat="44.11876" lon="6.386">
        <ele>1292</ele>
        <time>2011-08-18T11:16:29Z</time>
      </trkpt>
      <trkpt lat="44.11883" lon="6.38656">
        <ele>1288</ele>
        <time>2011-08-18T11:16:54Z</time>
      </trkpt>
      <trkpt lat="44.11876" lon="6.38707">
        <ele>1283</ele>
        <time>2011-08-18T11:17:17Z</time>
      </trkpt>
      <trkpt lat="44.11863" lon="6.38735">
        <ele>1285</ele>
        <time>2011-08-18T11:17:34Z</time>
      </trkpt>
      <trkpt lat="44.11835" lon="6.38754">
        <ele>1292</ele>
        <time>2011-08-18T11:17:53Z</time>
      </trkpt>
      <trkpt lat="44.11807" lon="6.38767">
        <ele>1296</ele>
        <time>2011-08-18T11:18:11Z</time>
      </trkpt>
      <trkpt lat="44.11778" lon="6.38763">
        <ele>1303</ele>
        <time>2011-08-18T11:18:30Z</time>
      </trkpt>
      <trkpt lat="44.11762" lon="6.38765">
        <ele>1309</ele>
        <time>2011-08-18T11:18:41Z</time>
      </trkpt>
      <trkpt lat="44.11758" lon="6.3877">
        <ele>1308</ele>
        <time>2011-08-18T11:18:45Z</time>
      </trkpt>
      <trkpt lat="44.11727" lon="6.38797">
        <ele>1323</ele>
        <time>2011-08-18T11:19:10Z</time>
      </trkpt>
      <trkpt lat="44.11701" lon="6.38829">
        <ele>1325</ele>
        <time>2011-08-18T11:19:33Z</time>
      </trkpt>
      <trkpt lat="44.11692" lon="6.38841">
        <ele>1308</ele>
        <time>2011-08-18T11:19:42Z</time>
      </trkpt>
      <trkpt lat="44.11673" lon="6.3887">
        <ele>1304</ele>
        <time>2011-08-18T11:20:02Z</time>
      </trkpt>
      <trkpt lat="44.1164" lon="6.38892">
        <ele>1324</ele>
        <time>2011-08-18T11:20:27Z</time>
      </trkpt>
      <trkpt lat="44.11639" lon="6.38892">
        <ele>1324</ele>
        <time>2011-08-18T11:20:28Z</time>
      </trkpt>
      <trkpt lat="44.11601" lon="6.38911">
        <ele>1328</ele>
        <time>2011-08-18T11:20:54Z</time>
      </trkpt>
      <trkpt lat="44.11571" lon="6.38898">
        <ele>1346</ele>
        <time>2011-08-18T11:21:14Z</time>
      </trkpt>
      <trkpt lat="44.11558" lon="6.38901">
        <ele>1350</ele>
        <time>2011-08-18T11:21:24Z</time>
      </trkpt>
      <trkpt lat="44.11545" lon="6.38911">
        <ele>1353</ele>
        <time>2011-08-18T11:21:33Z</time>
      </trkpt>
      <trkpt lat="44.11521" lon="6.3894">
        <ele>1341</ele>
        <time>2011-08-18T11:21:54Z</time>
      </trkpt>
      <trkpt lat="44.11505" lon="6.38974">
        <ele>1337</ele>
        <time>2011-08-18T11:22:10Z</time>
      </trkpt>
      <trkpt lat="44.11483" lon="6.39011">
        <ele>1337</ele>
        <time>2011-08-18T11:22:31Z</time>
      </trkpt>
      <trkpt lat="44.11444" lon="6.39016">
        <ele>1340</ele>
        <time>2011-08-18T11:22:55Z</time>
      </trkpt>
      <trkpt lat="44.11423" lon="6.39011">
        <ele>1348</ele>
        <time>2011-08-18T11:23:10Z</time>
      </trkpt>
      <trkpt lat="44.11407" lon="6.39004">
        <ele>1353</ele>
        <time>2011-08-18T11:23:25Z</time>
      </trkpt>
      <trkpt lat="44.11401" lon="6.39003">
        <ele>1352</ele>
        <time>2011-08-18T11:23:49Z</time>
      </trkpt>
      <trkpt lat="44.114" lon="6.39003">
        <ele>1352</ele>
        <time>2011-08-18T11:23:51Z</time>
      </trkpt>
      <trkpt lat="44.11387" lon="6.39002">
        <ele>1351</ele>
        <time>2011-08-18T11:24:09Z</time>
      </trkpt>
      <trkpt lat="44.1137" lon="6.38997">
        <ele>1369</ele>
        <time>2011-08-18T11:24:27Z</time>
      </trkpt>
      <trkpt lat="44.11332" lon="6.38988">
        <ele>1369</ele>
        <time>2011-08-18T11:24:49Z</time>
      </trkpt>
      <trkpt lat="44.11314" lon="6.3897">
        <ele>1378</ele>
        <time>2011-08-18T11:25:02Z</time>
      </trkpt>
      <trkpt lat="44.11308" lon="6.38957">
        <ele>1382</ele>
        <time>2011-08-18T11:25:10Z</time>
      </trkpt>
      <trkpt lat="44.11299" lon="6.38958">
        <ele>1382</ele>
        <time>2011-08-18T11:25:15Z</time>
      </trkpt>
      <trkpt lat="44.11272" lon="6.38978">
        <ele>1380</ele>
        <time>2011-08-18T11:25:32Z</time>
      </trkpt>
      <trkpt lat="44.11231" lon="6.38983">
        <ele>1393</ele>
        <time>2011-08-18T11:25:49Z</time>
      </trkpt>
      <trkpt lat="44.11225" lon="6.38989">
        <ele>1394</ele>
        <time>2011-08-18T11:25:51Z</time>
      </trkpt>
      <trkpt lat="44.11227" lon="6.39021">
        <ele>1396</ele>
        <time>2011-08-18T11:26:02Z</time>
      </trkpt>
      <trkpt lat="44.11245" lon="6.39047">
        <ele>1398</ele>
        <time>2011-08-18T11:26:16Z</time>
      </trkpt>
      <trkpt lat="44.11247" lon="6.39049">
        <ele>1398</ele>
        <time>2011-08-18T11:26:17Z</time>
      </trkpt>
      <trkpt lat="44.1127" lon="6.39087">
        <ele>1384</ele>
        <time>2011-08-18T11:26:33Z</time>
      </trkpt>
      <trkpt lat="44.11295" lon="6.39129">
        <ele>1378</ele>
        <time>2011-08-18T11:26:51Z</time>
      </trkpt>
      <trkpt lat="44.11315" lon="6.39182">
        <ele>1383</ele>
        <time>2011-08-18T11:27:11Z</time>
      </trkpt>
      <trkpt lat="44.11322" lon="6.39235">
        <ele>1389</ele>
        <time>2011-08-18T11:27:28Z</time>
      </trkpt>
      <trkpt lat="44.11327" lon="6.39296">
        <ele>1399</ele>
        <time>2011-08-18T11:27:49Z</time>
      </trkpt>
      <trkpt lat="44.11328" lon="6.39304">
        <ele>1398</ele>
        <time>2011-08-18T11:27:52Z</time>
      </trkpt>
      <trkpt lat="44.11328" lon="6.39315">
        <ele>1396</ele>
        <time>2011-08-18T11:27:57Z</time>
      </trkpt>
      <trkpt lat="44.11327" lon="6.39366">
        <ele>1399</ele>
        <time>2011-08-18T11:28:16Z</time>
      </trkpt>
      <trkpt lat="44.1132" lon="6.39424">
        <ele>1395</ele>
        <time>2011-08-18T11:28:38Z</time>
      </trkpt>
      <trkpt lat="44.11308" lon="6.39453">
        <ele>1403</ele>
        <time>2011-08-18T11:28:52Z</time>
      </trkpt>
      <trkpt lat="44.11285" lon="6.39505">
        <ele>1411</ele>
        <time>2011-08-18T11:29:17Z</time>
      </trkpt>
      <trkpt lat="44.11287" lon="6.39525">
        <ele>1411</ele>
        <time>2011-08-18T11:29:35Z</time>
      </trkpt>
      <trkpt lat="44.11289" lon="6.39531">
        <ele>1411</ele>
        <time>2011-08-18T11:29:39Z</time>
      </trkpt>
      <trkpt lat="44.1129" lon="6.39534">
        <ele>1411</ele>
        <time>2011-08-18T11:29:42Z</time>
      </trkpt>
      <trkpt lat="44.1129" lon="6.39554">
        <ele>1412</ele>
        <time>2011-08-18T11:29:55Z</time>
      </trkpt>
      <trkpt lat="44.11288" lon="6.39559">
        <ele>1412</ele>
        <time>2011-08-18T11:29:59Z</time>
      </trkpt>
      <trkpt lat="44.11288" lon="6.39572">
        <ele>1413</ele>
        <time>2011-08-18T11:30:08Z</time>
      </trkpt>
      <trkpt lat="44.11294" lon="6.39581">
        <ele>1412</ele>
        <time>2011-08-18T11:30:21Z</time>
      </trkpt>
      <trkpt lat="44.113" lon="6.39583">
        <ele>1411</ele>
        <time>2011-08-18T11:30:27Z</time>
      </trkpt>
      <trkpt lat="44.11315" lon="6.3959">
        <ele>1414</ele>
        <time>2011-08-18T11:30:50Z</time>
      </trkpt>
      <trkpt lat="44.11336" lon="6.39616">
        <ele>1413</ele>
        <time>2011-08-18T11:31:16Z</time>
      </trkpt>
      <trkpt lat="44.11347" lon="6.39626">
        <ele>1415</ele>
        <time>2011-08-18T11:31:34Z</time>
      </trkpt>
      <trkpt lat="44.11373" lon="6.39619">
        <ele>1415</ele>
        <time>2011-08-18T11:31:50Z</time>
      </trkpt>
      <trkpt lat="44.11379" lon="6.39618">
        <ele>1415</ele>
        <time>2011-08-18T11:31:54Z</time>
      </trkpt>
      <trkpt lat="44.11379" lon="6.39635">
        <ele>1417</ele>
        <time>2011-08-18T11:32:02Z</time>
      </trkpt>
      <trkpt lat="44.11351" lon="6.39654">
        <ele>1419</ele>
        <time>2011-08-18T11:32:19Z</time>
      </trkpt>
      <trkpt lat="44.11341" lon="6.39657">
        <ele>1420</ele>
        <time>2011-08-18T11:32:25Z</time>
      </trkpt>
      <trkpt lat="44.11308" lon="6.39645">
        <ele>1421</ele>
        <time>2011-08-18T11:32:46Z</time>
      </trkpt>
      <trkpt lat="44.11307" lon="6.39644">
        <ele>1421</ele>
        <time>2011-08-18T11:32:47Z</time>
      </trkpt>
      <trkpt lat="44.11302" lon="6.39659">
        <ele>1422</ele>
        <time>2011-08-18T11:32:57Z</time>
      </trkpt>
      <trkpt lat="44.11337" lon="6.39686">
        <ele>1430</ele>
        <time>2011-08-18T11:33:21Z</time>
      </trkpt>
      <trkpt lat="44.11363" lon="6.39703">
        <ele>1435</ele>
        <time>2011-08-18T11:33:40Z</time>
      </trkpt>
      <trkpt lat="44.11385" lon="6.39715">
        <ele>1437</ele>
        <time>2011-08-18T11:33:55Z</time>
      </trkpt>
      <trkpt lat="44.11411" lon="6.3971">
        <ele>1437</ele>
        <time>2011-08-18T11:34:12Z</time>
      </trkpt>
      <trkpt lat="44.11413" lon="6.39711">
        <ele>1437</ele>
        <time>2011-08-18T11:34:13Z</time>
      </trkpt>
      <trkpt lat="44.11437" lon="6.39689">
        <ele>1435</ele>
        <time>2011-08-18T11:34:34Z</time>
      </trkpt>
      <trkpt lat="44.11442" lon="6.39674">
        <ele>1434</ele>
        <time>2011-08-18T11:34:42Z</time>
      </trkpt>
      <trkpt lat="44.11458" lon="6.39644">
        <ele>1426</ele>
        <time>2011-08-18T11:34:59Z</time>
      </trkpt>
      <trkpt lat="44.11462" lon="6.39646">
        <ele>1426</ele>
        <time>2011-08-18T11:35:03Z</time>
      </trkpt>
      <trkpt lat="44.11461" lon="6.39653">
        <ele>1427</ele>
        <time>2011-08-18T11:35:07Z</time>
      </trkpt>
      <trkpt lat="44.11459" lon="6.39676">
        <ele>1435</ele>
        <time>2011-08-18T11:35:18Z</time>
      </trkpt>
      <trkpt lat="44.11459" lon="6.39685">
        <ele>1435</ele>
        <time>2011-08-18T11:35:22Z</time>
      </trkpt>
      <trkpt lat="44.11464" lon="6.39722">
        <ele>1437</ele>
        <time>2011-08-18T11:35:39Z</time>
      </trkpt>
      <trkpt lat="44.11465" lon="6.39724">
        <ele>1437</ele>
        <time>2011-08-18T11:35:40Z</time>
      </trkpt>
      <trkpt lat="44.11457" lon="6.3975">
        <ele>1438</ele>
        <time>2011-08-18T11:35:54Z</time>
      </trkpt>
      <trkpt lat="44.11449" lon="6.39763">
        <ele>1446</ele>
        <time>2011-08-18T11:36:09Z</time>
      </trkpt>
      <trkpt lat="44.11438" lon="6.3977">
        <ele>1447</ele>
        <time>2011-08-18T11:36:23Z</time>
      </trkpt>
      <trkpt lat="44.11423" lon="6.39778">
        <ele>1448</ele>
        <time>2011-08-18T11:36:38Z</time>
      </trkpt>
      <trkpt lat="44.11404" lon="6.39783">
        <ele>1458</ele>
        <time>2011-08-18T11:36:57Z</time>
      </trkpt>
      <trkpt lat="44.11387" lon="6.39785">
        <ele>1459</ele>
        <time>2011-08-18T11:37:18Z</time>
      </trkpt>
      <trkpt lat="44.11353" lon="6.39788">
        <ele>1461</ele>
        <time>2011-08-18T11:37:40Z</time>
      </trkpt>
      <trkpt lat="44.11328" lon="6.39787">
        <ele>1466</ele>
        <time>2011-08-18T11:37:55Z</time>
      </trkpt>
      <trkpt lat="44.11298" lon="6.39799">
        <ele>1469</ele>
        <time>2011-08-18T11:38:15Z</time>
      </trkpt>
      <trkpt lat="44.1127" lon="6.39807">
        <ele>1472</ele>
        <time>2011-08-18T11:38:35Z</time>
      </trkpt>
      <trkpt lat="44.1123" lon="6.39813">
        <ele>1480</ele>
        <time>2011-08-18T11:39:01Z</time>
      </trkpt>
      <trkpt lat="44.11206" lon="6.39817">
        <ele>1481</ele>
        <time>2011-08-18T11:39:18Z</time>
      </trkpt>
      <trkpt lat="44.11184" lon="6.39817">
        <ele>1485</ele>
        <time>2011-08-18T11:39:33Z</time>
      </trkpt>
      <trkpt lat="44.11154" lon="6.39814">
        <ele>1493</ele>
        <time>2011-08-18T11:39:53Z</time>
      </trkpt>
      <trkpt lat="44.11123" lon="6.39792">
        <ele>1491</ele>
        <time>2011-08-18T11:40:14Z</time>
      </trkpt>
      <trkpt lat="44.11096" lon="6.39797">
        <ele>1495</ele>
        <time>2011-08-18T11:40:32Z</time>
      </trkpt>
      <trkpt lat="44.1109" lon="6.39802">
        <ele>1496</ele>
        <time>2011-08-18T11:40:37Z</time>
      </trkpt>
      <trkpt lat="44.11067" lon="6.39822">
        <ele>1505</ele>
        <time>2011-08-18T11:40:54Z</time>
      </trkpt>
      <trkpt lat="44.11035" lon="6.39849">
        <ele>1511</ele>
        <time>2011-08-18T11:41:17Z</time>
      </trkpt>
      <trkpt lat="44.11007" lon="6.39861">
        <ele>1511</ele>
        <time>2011-08-18T11:41:37Z</time>
      </trkpt>
      <trkpt lat="44.10996" lon="6.39875">
        <ele>1506</ele>
        <time>2011-08-18T11:41:47Z</time>
      </trkpt>
      <trkpt lat="44.10989" lon="6.39883">
        <ele>1506</ele>
        <time>2011-08-18T11:42:00Z</time>
      </trkpt>
      <trkpt lat="44.1098" lon="6.39893">
        <ele>1506</ele>
        <time>2011-08-18T11:42:38Z</time>
      </trkpt>
      <trkpt lat="44.1098" lon="6.39896">
        <ele>1506</ele>
        <time>2011-08-18T11:42:52Z</time>
      </trkpt>
      <trkpt lat="44.10981" lon="6.39897">
        <ele>1506</ele>
        <time>2011-08-18T11:51:44Z</time>
      </trkpt>
      <trkpt lat="44.10981" lon="6.39897">
        <ele>1506</ele>
        <time>2011-08-18T11:54:24Z</time>
      </trkpt>
      <trkpt lat="44.10951" lon="6.39877">
        <ele>1503</ele>
        <time>2011-08-18T11:54:36Z</time>
      </trkpt>
      <trkpt lat="44.10938" lon="6.39871">
        <ele>1502</ele>
        <time>2011-08-18T11:54:46Z</time>
      </trkpt>
      <trkpt lat="44.10933" lon="6.3987">
        <ele>1502</ele>
        <time>2011-08-18T11:55:17Z</time>
      </trkpt>
      <trkpt lat="44.10904" lon="6.39865">
        <ele>1495</ele>
        <time>2011-08-18T11:55:28Z</time>
      </trkpt>
      <trkpt lat="44.10891" lon="6.39864">
        <ele>1494</ele>
        <time>2011-08-18T11:55:33Z</time>
      </trkpt>
      <trkpt lat="44.10872" lon="6.39856">
        <ele>1493</ele>
        <time>2011-08-18T11:55:39Z</time>
      </trkpt>
      <trkpt lat="44.10845" lon="6.39858">
        <ele>1492</ele>
        <time>2011-08-18T11:55:50Z</time>
      </trkpt>
      <trkpt lat="44.10826" lon="6.39853">
        <ele>1484</ele>
        <time>2011-08-18T11:55:59Z</time>
      </trkpt>
      <trkpt lat="44.10819" lon="6.39853">
        <ele>1484</ele>
        <time>2011-08-18T11:56:02Z</time>
      </trkpt>
      <trkpt lat="44.10767" lon="6.39859">
        <ele>1478</ele>
        <time>2011-08-18T11:56:16Z</time>
      </trkpt>
      <trkpt lat="44.10764" lon="6.39857">
        <ele>1478</ele>
        <time>2011-08-18T11:56:17Z</time>
      </trkpt>
      <trkpt lat="44.10732" lon="6.39861">
        <ele>1463</ele>
        <time>2011-08-18T11:56:26Z</time>
      </trkpt>
      <trkpt lat="44.10705" lon="6.39866">
        <ele>1458</ele>
        <time>2011-08-18T11:56:37Z</time>
      </trkpt>
      <trkpt lat="44.10679" lon="6.39858">
        <ele>1455</ele>
        <time>2011-08-18T11:56:47Z</time>
      </trkpt>
      <trkpt lat="44.10675" lon="6.39853">
        <ele>1455</ele>
        <time>2011-08-18T11:56:49Z</time>
      </trkpt>
      <trkpt lat="44.1065" lon="6.39836">
        <ele>1442</ele>
        <time>2011-08-18T11:57:00Z</time>
      </trkpt>
      <trkpt lat="44.10642" lon="6.39837">
        <ele>1439</ele>
        <time>2011-08-18T11:57:04Z</time>
      </trkpt>
      <trkpt lat="44.10616" lon="6.3983">
        <ele>1444</ele>
        <time>2011-08-18T11:57:16Z</time>
      </trkpt>
      <trkpt lat="44.1061" lon="6.39831">
        <ele>1442</ele>
        <time>2011-08-18T11:57:30Z</time>
      </trkpt>
      <trkpt lat="44.10603" lon="6.39833">
        <ele>1439</ele>
        <time>2011-08-18T11:57:44Z</time>
      </trkpt>
      <trkpt lat="44.10586" lon="6.39831">
        <ele>1427</ele>
        <time>2011-08-18T11:57:55Z</time>
      </trkpt>
      <trkpt lat="44.10573" lon="6.39825">
        <ele>1423</ele>
        <time>2011-08-18T11:58:07Z</time>
      </trkpt>
      <trkpt lat="44.10564" lon="6.39818">
        <ele>1423</ele>
        <time>2011-08-18T11:58:13Z</time>
      </trkpt>
      <trkpt lat="44.10558" lon="6.39811">
        <ele>1423</ele>
        <time>2011-08-18T11:58:16Z</time>
      </trkpt>
      <trkpt lat="44.10548" lon="6.3981">
        <ele>1421</ele>
        <time>2011-08-18T11:58:20Z</time>
      </trkpt>
      <trkpt lat="44.10538" lon="6.39807">
        <ele>1420</ele>
        <time>2011-08-18T11:58:33Z</time>
      </trkpt>
      <trkpt lat="44.10531" lon="6.39811">
        <ele>1417</ele>
        <time>2011-08-18T11:58:40Z</time>
      </trkpt>
      <trkpt lat="44.10521" lon="6.39812">
        <ele>1415</ele>
        <time>2011-08-18T11:58:52Z</time>
      </trkpt>
      <trkpt lat="44.10521" lon="6.39812">
        <ele>1415</ele>
        <time>2011-08-18T11:59:14Z</time>
      </trkpt>
      <trkpt lat="44.10521" lon="6.39812">
        <ele>1415</ele>
        <time>2011-08-18T11:59:19Z</time>
      </trkpt>
      <trkpt lat="44.10519" lon="6.39809">
        <ele>1415</ele>
        <time>2011-08-18T11:59:34Z</time>
      </trkpt>
      <trkpt lat="44.10518" lon="6.39807">
        <ele>1415</ele>
        <time>2011-08-18T11:59:46Z</time>
      </trkpt>
      <trkpt lat="44.10513" lon="6.39803">
        <ele>1416</ele>
        <time>2011-08-18T12:00:01Z</time>
      </trkpt>
      <trkpt lat="44.10505" lon="6.39801">
        <ele>1415</ele>
        <time>2011-08-18T12:00:17Z</time>
      </trkpt>
      <trkpt lat="44.105" lon="6.398">
        <ele>1415</ele>
        <time>2011-08-18T12:00:40Z</time>
      </trkpt>
      <trkpt lat="44.10493" lon="6.39804">
        <ele>1395</ele>
        <time>2011-08-18T12:00:57Z</time>
      </trkpt>
      <trkpt lat="44.10488" lon="6.39803">
        <ele>1394</ele>
        <time>2011-08-18T12:01:10Z</time>
      </trkpt>
      <trkpt lat="44.1048" lon="6.39801">
        <ele>1393</ele>
        <time>2011-08-18T12:01:20Z</time>
      </trkpt>
      <trkpt lat="44.10476" lon="6.39802">
        <ele>1393</ele>
        <time>2011-08-18T12:01:23Z</time>
      </trkpt>
      <trkpt lat="44.1047" lon="6.39798">
        <ele>1392</ele>
        <time>2011-08-18T12:01:36Z</time>
      </trkpt>
      <trkpt lat="44.10463" lon="6.39797">
        <ele>1391</ele>
        <time>2011-08-18T12:02:06Z</time>
      </trkpt>
      <trkpt lat="44.10458" lon="6.39793">
        <ele>1390</ele>
        <time>2011-08-18T12:02:20Z</time>
      </trkpt>
      <trkpt lat="44.1045" lon="6.3981">
        <ele>1386</ele>
        <time>2011-08-18T12:02:39Z</time>
      </trkpt>
      <trkpt lat="44.10443" lon="6.39807">
        <ele>1384</ele>
        <time>2011-08-18T12:02:53Z</time>
      </trkpt>
      <trkpt lat="44.10442" lon="6.39806">
        <ele>1384</ele>
        <time>2011-08-18T12:02:56Z</time>
      </trkpt>
      <trkpt lat="44.10437" lon="6.39786">
        <ele>1386</ele>
        <time>2011-08-18T12:03:15Z</time>
      </trkpt>
      <trkpt lat="44.10427" lon="6.39782">
        <ele>1385</ele>
        <time>2011-08-18T12:03:36Z</time>
      </trkpt>
      <trkpt lat="44.10427" lon="6.39783">
        <ele>1385</ele>
        <time>2011-08-18T12:03:37Z</time>
      </trkpt>
      <trkpt lat="44.10419" lon="6.39798">
        <ele>1382</ele>
        <time>2011-08-18T12:03:55Z</time>
      </trkpt>
      <trkpt lat="44.10419" lon="6.39796">
        <ele>1382</ele>
        <time>2011-08-18T12:03:58Z</time>
      </trkpt>
      <trkpt lat="44.1041" lon="6.39779">
        <ele>1363</ele>
        <time>2011-08-18T12:04:18Z</time>
      </trkpt>
      <trkpt lat="44.10407" lon="6.39776">
        <ele>1364</ele>
        <time>2011-08-18T12:04:26Z</time>
      </trkpt>
      <trkpt lat="44.10399" lon="6.39769">
        <ele>1364</ele>
        <time>2011-08-18T12:04:40Z</time>
      </trkpt>
      <trkpt lat="44.10378" lon="6.39768">
        <ele>1358</ele>
        <time>2011-08-18T12:04:50Z</time>
      </trkpt>
      <trkpt lat="44.10348" lon="6.39754">
        <ele>1350</ele>
        <time>2011-08-18T12:05:01Z</time>
      </trkpt>
      <trkpt lat="44.10328" lon="6.39724">
        <ele>1340</ele>
        <time>2011-08-18T12:05:11Z</time>
      </trkpt>
      <trkpt lat="44.10306" lon="6.39723">
        <ele>1338</ele>
        <time>2011-08-18T12:05:22Z</time>
      </trkpt>
      <trkpt lat="44.1028" lon="6.39713">
        <ele>1334</ele>
        <time>2011-08-18T12:05:32Z</time>
      </trkpt>
      <trkpt lat="44.1027" lon="6.39706">
        <ele>1333</ele>
        <time>2011-08-18T12:05:36Z</time>
      </trkpt>
      <trkpt lat="44.10246" lon="6.39697">
        <ele>1317</ele>
        <time>2011-08-18T12:05:46Z</time>
      </trkpt>
      <trkpt lat="44.10246" lon="6.39696">
        <ele>1317</ele>
        <time>2011-08-18T12:05:51Z</time>
      </trkpt>
      <trkpt lat="44.10239" lon="6.39698">
        <ele>1316</ele>
        <time>2011-08-18T12:05:56Z</time>
      </trkpt>
      <trkpt lat="44.10229" lon="6.39694">
        <ele>1315</ele>
        <time>2011-08-18T12:06:02Z</time>
      </trkpt>
      <trkpt lat="44.10225" lon="6.39697">
        <ele>1315</ele>
        <time>2011-08-18T12:06:05Z</time>
      </trkpt>
      <trkpt lat="44.10225" lon="6.39707">
        <ele>1314</ele>
        <time>2011-08-18T12:06:10Z</time>
      </trkpt>
      <trkpt lat="44.1022" lon="6.39712">
        <ele>1313</ele>
        <time>2011-08-18T12:06:15Z</time>
      </trkpt>
      <trkpt lat="44.10196" lon="6.39693">
        <ele>1311</ele>
        <time>2011-08-18T12:06:27Z</time>
      </trkpt>
      <trkpt lat="44.10181" lon="6.39665">
        <ele>1312</ele>
        <time>2011-08-18T12:06:37Z</time>
      </trkpt>
      <trkpt lat="44.10171" lon="6.39658">
        <ele>1310</ele>
        <time>2011-08-18T12:06:40Z</time>
      </trkpt>
      <trkpt lat="44.10145" lon="6.39643">
        <ele>1302</ele>
        <time>2011-08-18T12:06:45Z</time>
      </trkpt>
      <trkpt lat="44.10087" lon="6.3964">
        <ele>1296</ele>
        <time>2011-08-18T12:06:56Z</time>
      </trkpt>
      <trkpt lat="44.10068" lon="6.39633">
        <ele>1285</ele>
        <time>2011-08-18T12:07:02Z</time>
      </trkpt>
      <trkpt lat="44.10047" lon="6.39633">
        <ele>1283</ele>
        <time>2011-08-18T12:07:06Z</time>
      </trkpt>
      <trkpt lat="44.10029" lon="6.39621">
        <ele>1282</ele>
        <time>2011-08-18T12:07:11Z</time>
      </trkpt>
      <trkpt lat="44.09999" lon="6.39603">
        <ele>1273</ele>
        <time>2011-08-18T12:07:20Z</time>
      </trkpt>
      <trkpt lat="44.09999" lon="6.39604">
        <ele>1273</ele>
        <time>2011-08-18T12:07:35Z</time>
      </trkpt>
      <trkpt lat="44.09999" lon="6.39601">
        <ele>1273</ele>
        <time>2011-08-18T12:10:21Z</time>
      </trkpt>
      <trkpt lat="44.09978" lon="6.3957">
        <ele>1277</ele>
        <time>2011-08-18T12:10:31Z</time>
      </trkpt>
      <trkpt lat="44.09974" lon="6.39569">
        <ele>1277</ele>
        <time>2011-08-18T12:10:45Z</time>
      </trkpt>
      <trkpt lat="44.09959" lon="6.39565">
        <ele>1275</ele>
        <time>2011-08-18T12:10:50Z</time>
      </trkpt>
      <trkpt lat="44.09948" lon="6.39551">
        <ele>1275</ele>
        <time>2011-08-18T12:10:54Z</time>
      </trkpt>
      <trkpt lat="44.09942" lon="6.3954">
        <ele>1275</ele>
        <time>2011-08-18T12:10:56Z</time>
      </trkpt>
      <trkpt lat="44.09921" lon="6.39524">
        <ele>1275</ele>
        <time>2011-08-18T12:11:02Z</time>
      </trkpt>
      <trkpt lat="44.0988" lon="6.39524">
        <ele>1261</ele>
        <time>2011-08-18T12:11:11Z</time>
      </trkpt>
      <trkpt lat="44.09868" lon="6.39524">
        <ele>1260</ele>
        <time>2011-08-18T12:11:14Z</time>
      </trkpt>
      <trkpt lat="44.09848" lon="6.39512">
        <ele>1258</ele>
        <time>2011-08-18T12:11:18Z</time>
      </trkpt>
      <trkpt lat="44.09794" lon="6.39502">
        <ele>1249</ele>
        <time>2011-08-18T12:11:27Z</time>
      </trkpt>
      <trkpt lat="44.09773" lon="6.39488">
        <ele>1246</ele>
        <time>2011-08-18T12:11:34Z</time>
      </trkpt>
      <trkpt lat="44.0977" lon="6.39478">
        <ele>1247</ele>
        <time>2011-08-18T12:11:37Z</time>
      </trkpt>
      <trkpt lat="44.09751" lon="6.39455">
        <ele>1249</ele>
        <time>2011-08-18T12:11:47Z</time>
      </trkpt>
      <trkpt lat="44.09728" lon="6.39449">
        <ele>1239</ele>
        <time>2011-08-18T12:11:57Z</time>
      </trkpt>
      <trkpt lat="44.09695" lon="6.39431">
        <ele>1236</ele>
        <time>2011-08-18T12:12:05Z</time>
      </trkpt>
      <trkpt lat="44.09666" lon="6.39411">
        <ele>1230</ele>
        <time>2011-08-18T12:12:12Z</time>
      </trkpt>
      <trkpt lat="44.09641" lon="6.39391">
        <ele>1236</ele>
        <time>2011-08-18T12:12:19Z</time>
      </trkpt>
      <trkpt lat="44.09617" lon="6.39379">
        <ele>1236</ele>
        <time>2011-08-18T12:12:26Z</time>
      </trkpt>
      <trkpt lat="44.09606" lon="6.39372">
        <ele>1236</ele>
        <time>2011-08-18T12:12:31Z</time>
      </trkpt>
      <trkpt lat="44.0959" lon="6.3938">
        <ele>1235</ele>
        <time>2011-08-18T12:12:45Z</time>
      </trkpt>
      <trkpt lat="44.0958" lon="6.39393">
        <ele>1230</ele>
        <time>2011-08-18T12:13:03Z</time>
      </trkpt>
      <trkpt lat="44.09576" lon="6.39396">
        <ele>1230</ele>
        <time>2011-08-18T12:13:13Z</time>
      </trkpt>
      <trkpt lat="44.09577" lon="6.3936">
        <ele>1226</ele>
        <time>2011-08-18T12:13:26Z</time>
      </trkpt>
      <trkpt lat="44.09576" lon="6.39357">
        <ele>1226</ele>
        <time>2011-08-18T12:13:31Z</time>
      </trkpt>
      <trkpt lat="44.09575" lon="6.39326">
        <ele>1227</ele>
        <time>2011-08-18T12:13:41Z</time>
      </trkpt>
      <trkpt lat="44.0955" lon="6.39295">
        <ele>1231</ele>
        <time>2011-08-18T12:13:51Z</time>
      </trkpt>
      <trkpt lat="44.09527" lon="6.3928">
        <ele>1227</ele>
        <time>2011-08-18T12:13:57Z</time>
      </trkpt>
      <trkpt lat="44.09512" lon="6.39273">
        <ele>1225</ele>
        <time>2011-08-18T12:14:00Z</time>
      </trkpt>
      <trkpt lat="44.09454" lon="6.39272">
        <ele>1201</ele>
        <time>2011-08-18T12:14:12Z</time>
      </trkpt>
      <trkpt lat="44.09449" lon="6.39274">
        <ele>1200</ele>
        <time>2011-08-18T12:14:13Z</time>
      </trkpt>
      <trkpt lat="44.09431" lon="6.39282">
        <ele>1198</ele>
        <time>2011-08-18T12:14:17Z</time>
      </trkpt>
      <trkpt lat="44.09407" lon="6.39276">
        <ele>1190</ele>
        <time>2011-08-18T12:14:21Z</time>
      </trkpt>
      <trkpt lat="44.09387" lon="6.39264">
        <ele>1189</ele>
        <time>2011-08-18T12:14:25Z</time>
      </trkpt>
      <trkpt lat="44.09359" lon="6.39257">
        <ele>1186</ele>
        <time>2011-08-18T12:14:32Z</time>
      </trkpt>
      <trkpt lat="44.09352" lon="6.3925">
        <ele>1186</ele>
        <time>2011-08-18T12:14:34Z</time>
      </trkpt>
      <trkpt lat="44.09323" lon="6.39239">
        <ele>1179</ele>
        <time>2011-08-18T12:14:40Z</time>
      </trkpt>
      <trkpt lat="44.09315" lon="6.39239">
        <ele>1179</ele>
        <time>2011-08-18T12:14:42Z</time>
      </trkpt>
      <trkpt lat="44.09283" lon="6.3922">
        <ele>1178</ele>
        <time>2011-08-18T12:14:51Z</time>
      </trkpt>
      <trkpt lat="44.09257" lon="6.39219">
        <ele>1176</ele>
        <time>2011-08-18T12:14:57Z</time>
      </trkpt>
      <trkpt lat="44.09233" lon="6.39213">
        <ele>1168</ele>
        <time>2011-08-18T12:15:02Z</time>
      </trkpt>
      <trkpt lat="44.09215" lon="6.39193">
        <ele>1168</ele>
        <time>2011-08-18T12:15:07Z</time>
      </trkpt>
      <trkpt lat="44.09192" lon="6.39186">
        <ele>1166</ele>
        <time>2011-08-18T12:15:12Z</time>
      </trkpt>
      <trkpt lat="44.09144" lon="6.39193">
        <ele>1160</ele>
        <time>2011-08-18T12:15:20Z</time>
      </trkpt>
      <trkpt lat="44.09098" lon="6.39186">
        <ele>1157</ele>
        <time>2011-08-18T12:15:27Z</time>
      </trkpt>
      <trkpt lat="44.09072" lon="6.39176">
        <ele>1153</ele>
        <time>2011-08-18T12:15:31Z</time>
      </trkpt>
      <trkpt lat="44.0905" lon="6.39173">
        <ele>1151</ele>
        <time>2011-08-18T12:15:35Z</time>
      </trkpt>
      <trkpt lat="44.0904" lon="6.39149">
        <ele>1147</ele>
        <time>2011-08-18T12:15:40Z</time>
      </trkpt>
      <trkpt lat="44.0904" lon="6.39135">
        <ele>1148</ele>
        <time>2011-08-18T12:15:43Z</time>
      </trkpt>
      <trkpt lat="44.09032" lon="6.39113">
        <ele>1148</ele>
        <time>2011-08-18T12:15:47Z</time>
      </trkpt>
      <trkpt lat="44.0902" lon="6.39088">
        <ele>1146</ele>
        <time>2011-08-18T12:15:51Z</time>
      </trkpt>
      <trkpt lat="44.08997" lon="6.39054">
        <ele>1136</ele>
        <time>2011-08-18T12:16:02Z</time>
      </trkpt>
      <trkpt lat="44.08986" lon="6.39046">
        <ele>1136</ele>
        <time>2011-08-18T12:16:06Z</time>
      </trkpt>
      <trkpt lat="44.08946" lon="6.39002">
        <ele>1129</ele>
        <time>2011-08-18T12:16:16Z</time>
      </trkpt>
      <trkpt lat="44.0894" lon="6.38973">
        <ele>1131</ele>
        <time>2011-08-18T12:16:22Z</time>
      </trkpt>
      <trkpt lat="44.08953" lon="6.38918">
        <ele>1136</ele>
        <time>2011-08-18T12:16:33Z</time>
      </trkpt>
      <trkpt lat="44.08952" lon="6.38894">
        <ele>1136</ele>
        <time>2011-08-18T12:16:37Z</time>
      </trkpt>
      <trkpt lat="44.08947" lon="6.38869">
        <ele>1135</ele>
        <time>2011-08-18T12:16:41Z</time>
      </trkpt>
      <trkpt lat="44.08951" lon="6.38837">
        <ele>1135</ele>
        <time>2011-08-18T12:16:47Z</time>
      </trkpt>
      <trkpt lat="44.08947" lon="6.38819">
        <ele>1132</ele>
        <time>2011-08-18T12:16:51Z</time>
      </trkpt>
      <trkpt lat="44.08945" lon="6.38798">
        <ele>1133</ele>
        <time>2011-08-18T12:16:55Z</time>
      </trkpt>
      <trkpt lat="44.08928" lon="6.38747">
        <ele>1125</ele>
        <time>2011-08-18T12:17:05Z</time>
      </trkpt>
      <trkpt lat="44.08929" lon="6.38743">
        <ele>1126</ele>
        <time>2011-08-18T12:17:06Z</time>
      </trkpt>
      <trkpt lat="44.08921" lon="6.38732">
        <ele>1126</ele>
        <time>2011-08-18T12:17:11Z</time>
      </trkpt>
      <trkpt lat="44.08913" lon="6.38732">
        <ele>1116</ele>
        <time>2011-08-18T12:17:13Z</time>
      </trkpt>
      <trkpt lat="44.08895" lon="6.38727">
        <ele>1114</ele>
        <time>2011-08-18T12:17:17Z</time>
      </trkpt>
      <trkpt lat="44.08861" lon="6.38699">
        <ele>1111</ele>
        <time>2011-08-18T12:17:26Z</time>
      </trkpt>
      <trkpt lat="44.08849" lon="6.38716">
        <ele>1109</ele>
        <time>2011-08-18T12:17:33Z</time>
      </trkpt>
      <trkpt lat="44.08845" lon="6.38732">
        <ele>1107</ele>
        <time>2011-08-18T12:17:36Z</time>
      </trkpt>
      <trkpt lat="44.08833" lon="6.38782">
        <ele>1095</ele>
        <time>2011-08-18T12:17:44Z</time>
      </trkpt>
      <trkpt lat="44.08827" lon="6.38817">
        <ele>1095</ele>
        <time>2011-08-18T12:17:49Z</time>
      </trkpt>
      <trkpt lat="44.08828" lon="6.38843">
        <ele>1097</ele>
        <time>2011-08-18T12:17:53Z</time>
      </trkpt>
      <trkpt lat="44.08832" lon="6.38879">
        <ele>1098</ele>
        <time>2011-08-18T12:17:57Z</time>
      </trkpt>
      <trkpt lat="44.08814" lon="6.38911">
        <ele>1098</ele>
        <time>2011-08-18T12:18:05Z</time>
      </trkpt>
      <trkpt lat="44.08808" lon="6.38907">
        <ele>1098</ele>
        <time>2011-08-18T12:18:07Z</time>
      </trkpt>
      <trkpt lat="44.08769" lon="6.38848">
        <ele>1096</ele>
        <time>2011-08-18T12:18:22Z</time>
      </trkpt>
      <trkpt lat="44.08734" lon="6.38812">
        <ele>1089</ele>
        <time>2011-08-18T12:18:34Z</time>
      </trkpt>
      <trkpt lat="44.08719" lon="6.38798">
        <ele>1088</ele>
        <time>2011-08-18T12:18:38Z</time>
      </trkpt>
      <trkpt lat="44.08699" lon="6.38773">
        <ele>1087</ele>
        <time>2011-08-18T12:18:44Z</time>
      </trkpt>
      <trkpt lat="44.08628" lon="6.38714">
        <ele>1078</ele>
        <time>2011-08-18T12:18:56Z</time>
      </trkpt>
      <trkpt lat="44.0855" lon="6.3863">
        <ele>1069</ele>
        <time>2011-08-18T12:19:09Z</time>
      </trkpt>
      <trkpt lat="44.08519" lon="6.38603">
        <ele>1067</ele>
        <time>2011-08-18T12:19:13Z</time>
      </trkpt>
      <trkpt lat="44.08492" lon="6.38572">
        <ele>1061</ele>
        <time>2011-08-18T12:19:17Z</time>
      </trkpt>
      <trkpt lat="44.08458" lon="6.3855">
        <ele>1059</ele>
        <time>2011-08-18T12:19:22Z</time>
      </trkpt>
      <trkpt lat="44.08402" lon="6.38542">
        <ele>1060</ele>
        <time>2011-08-18T12:19:33Z</time>
      </trkpt>
      <trkpt lat="44.08379" lon="6.38545">
        <ele>1060</ele>
        <time>2011-08-18T12:19:39Z</time>
      </trkpt>
      <trkpt lat="44.08362" lon="6.38554">
        <ele>1061</ele>
        <time>2011-08-18T12:19:43Z</time>
      </trkpt>
      <trkpt lat="44.08305" lon="6.38608">
        <ele>1069</ele>
        <time>2011-08-18T12:19:59Z</time>
      </trkpt>
      <trkpt lat="44.08292" lon="6.38629">
        <ele>1070</ele>
        <time>2011-08-18T12:20:04Z</time>
      </trkpt>
      <trkpt lat="44.08256" lon="6.38626">
        <ele>1069</ele>
        <time>2011-08-18T12:20:14Z</time>
      </trkpt>
      <trkpt lat="44.08252" lon="6.38624">
        <ele>1069</ele>
        <time>2011-08-18T12:20:15Z</time>
      </trkpt>
      <trkpt lat="44.08207" lon="6.38576">
        <ele>1057</ele>
        <time>2011-08-18T12:20:25Z</time>
      </trkpt>
      <trkpt lat="44.08196" lon="6.38562">
        <ele>1057</ele>
        <time>2011-08-18T12:20:28Z</time>
      </trkpt>
      <trkpt lat="44.08178" lon="6.38511">
        <ele>1053</ele>
        <time>2011-08-18T12:20:34Z</time>
      </trkpt>
      <trkpt lat="44.08166" lon="6.38489">
        <ele>1047</ele>
        <time>2011-08-18T12:20:37Z</time>
      </trkpt>
      <trkpt lat="44.08141" lon="6.38488">
        <ele>1043</ele>
        <time>2011-08-18T12:20:44Z</time>
      </trkpt>
      <trkpt lat="44.08139" lon="6.38494">
        <ele>1043</ele>
        <time>2011-08-18T12:20:45Z</time>
      </trkpt>
      <trkpt lat="44.08112" lon="6.38504">
        <ele>1046</ele>
        <time>2011-08-18T12:20:52Z</time>
      </trkpt>
      <trkpt lat="44.08096" lon="6.38489">
        <ele>1039</ele>
        <time>2011-08-18T12:20:55Z</time>
      </trkpt>
      <trkpt lat="44.08071" lon="6.38481">
        <ele>1031</ele>
        <time>2011-08-18T12:20:59Z</time>
      </trkpt>
      <trkpt lat="44.0805" lon="6.38459">
        <ele>1027</ele>
        <time>2011-08-18T12:21:04Z</time>
      </trkpt>
      <trkpt lat="44.08051" lon="6.384">
        <ele>1020</ele>
        <time>2011-08-18T12:21:12Z</time>
      </trkpt>
      <trkpt lat="44.08055" lon="6.38396">
        <ele>1020</ele>
        <time>2011-08-18T12:21:13Z</time>
      </trkpt>
      <trkpt lat="44.08109" lon="6.38368">
        <ele>1024</ele>
        <time>2011-08-18T12:21:21Z</time>
      </trkpt>
      <trkpt lat="44.0814" lon="6.38348">
        <ele>1023</ele>
        <time>2011-08-18T12:21:29Z</time>
      </trkpt>
      <trkpt lat="44.08133" lon="6.38343">
        <ele>1023</ele>
        <time>2011-08-18T12:21:31Z</time>
      </trkpt>
      <trkpt lat="44.08048" lon="6.38312">
        <ele>1009</ele>
        <time>2011-08-18T12:21:48Z</time>
      </trkpt>
      <trkpt lat="44.07997" lon="6.38308">
        <ele>1003</ele>
        <time>2011-08-18T12:21:55Z</time>
      </trkpt>
      <trkpt lat="44.07955" lon="6.38329">
        <ele>1001</ele>
        <time>2011-08-18T12:22:01Z</time>
      </trkpt>
      <trkpt lat="44.07927" lon="6.38359">
        <ele>1003</ele>
        <time>2011-08-18T12:22:06Z</time>
      </trkpt>
      <trkpt lat="44.07914" lon="6.38386">
        <ele>1002</ele>
        <time>2011-08-18T12:22:10Z</time>
      </trkpt>
      <trkpt lat="44.0791" lon="6.38399">
        <ele>1003</ele>
        <time>2011-08-18T12:22:12Z</time>
      </trkpt>
      <trkpt lat="44.07878" lon="6.38397">
        <ele>1004</ele>
        <time>2011-08-18T12:22:19Z</time>
      </trkpt>
      <trkpt lat="44.07859" lon="6.3836">
        <ele>1002</ele>
        <time>2011-08-18T12:22:27Z</time>
      </trkpt>
      <trkpt lat="44.07846" lon="6.38337">
        <ele>999</ele>
        <time>2011-08-18T12:22:32Z</time>
      </trkpt>
      <trkpt lat="44.07808" lon="6.38313">
        <ele>994</ele>
        <time>2011-08-18T12:22:44Z</time>
      </trkpt>
      <trkpt lat="44.07768" lon="6.38302">
        <ele>994</ele>
        <time>2011-08-18T12:22:53Z</time>
      </trkpt>
      <trkpt lat="44.07683" lon="6.38288">
        <ele>989</ele>
        <time>2011-08-18T12:23:05Z</time>
      </trkpt>
      <trkpt lat="44.0765" lon="6.3829">
        <ele>984</ele>
        <time>2011-08-18T12:23:09Z</time>
      </trkpt>
      <trkpt lat="44.07617" lon="6.38286">
        <ele>983</ele>
        <time>2011-08-18T12:23:13Z</time>
      </trkpt>
      <trkpt lat="44.0758" lon="6.38307">
        <ele>979</ele>
        <time>2011-08-18T12:23:18Z</time>
      </trkpt>
      <trkpt lat="44.07569" lon="6.38323">
        <ele>980</ele>
        <time>2011-08-18T12:23:20Z</time>
      </trkpt>
      <trkpt lat="44.07526" lon="6.38326">
        <ele>976</ele>
        <time>2011-08-18T12:23:26Z</time>
      </trkpt>
      <trkpt lat="44.07499" lon="6.38341">
        <ele>974</ele>
        <time>2011-08-18T12:23:30Z</time>
      </trkpt>
      <trkpt lat="44.07481" lon="6.38369">
        <ele>974</ele>
        <time>2011-08-18T12:23:34Z</time>
      </trkpt>
      <trkpt lat="44.07472" lon="6.38381">
        <ele>975</ele>
        <time>2011-08-18T12:23:36Z</time>
      </trkpt>
      <trkpt lat="44.07446" lon="6.384">
        <ele>975</ele>
        <time>2011-08-18T12:23:41Z</time>
      </trkpt>
      <trkpt lat="44.07354" lon="6.38439">
        <ele>978</ele>
        <time>2011-08-18T12:23:59Z</time>
      </trkpt>
      <trkpt lat="44.07298" lon="6.38456">
        <ele>975</ele>
        <time>2011-08-18T12:24:10Z</time>
      </trkpt>
      <trkpt lat="44.0728" lon="6.38465">
        <ele>975</ele>
        <time>2011-08-18T12:24:14Z</time>
      </trkpt>
      <trkpt lat="44.07256" lon="6.38467">
        <ele>975</ele>
        <time>2011-08-18T12:24:19Z</time>
      </trkpt>
      <trkpt lat="44.07236" lon="6.38472">
        <ele>971</ele>
        <time>2011-08-18T12:24:23Z</time>
      </trkpt>
      <trkpt lat="44.07166" lon="6.38509">
        <ele>970</ele>
        <time>2011-08-18T12:24:37Z</time>
      </trkpt>
      <trkpt lat="44.07106" lon="6.38567">
        <ele>968</ele>
        <time>2011-08-18T12:24:51Z</time>
      </trkpt>
      <trkpt lat="44.07091" lon="6.38589">
        <ele>967</ele>
        <time>2011-08-18T12:24:54Z</time>
      </trkpt>
      <trkpt lat="44.07035" lon="6.38691">
        <ele>958</ele>
        <time>2011-08-18T12:25:05Z</time>
      </trkpt>
      <trkpt lat="44.07021" lon="6.38714">
        <ele>958</ele>
        <time>2011-08-18T12:25:09Z</time>
      </trkpt>
      <trkpt lat="44.07016" lon="6.38714">
        <ele>958</ele>
        <time>2011-08-18T12:25:12Z</time>
      </trkpt>
      <trkpt lat="44.07011" lon="6.3872">
        <ele>958</ele>
        <time>2011-08-18T12:25:22Z</time>
      </trkpt>
      <trkpt lat="44.07005" lon="6.38727">
        <ele>957</ele>
        <time>2011-08-18T12:26:30Z</time>
      </trkpt>
      <trkpt lat="44.06987" lon="6.38725">
        <ele>954</ele>
        <time>2011-08-18T12:26:35Z</time>
      </trkpt>
      <trkpt lat="44.06969" lon="6.38731">
        <ele>954</ele>
        <time>2011-08-18T12:26:39Z</time>
      </trkpt>
      <trkpt lat="44.06934" lon="6.38757">
        <ele>954</ele>
        <time>2011-08-18T12:26:46Z</time>
      </trkpt>
      <trkpt lat="44.06908" lon="6.38763">
        <ele>952</ele>
        <time>2011-08-18T12:26:52Z</time>
      </trkpt>
      <trkpt lat="44.06876" lon="6.38752">
        <ele>951</ele>
        <time>2011-08-18T12:26:59Z</time>
      </trkpt>
      <trkpt lat="44.06862" lon="6.38751">
        <ele>951</ele>
        <time>2011-08-18T12:27:02Z</time>
      </trkpt>
      <trkpt lat="44.06787" lon="6.38716">
        <ele>947</ele>
        <time>2011-08-18T12:27:18Z</time>
      </trkpt>
      <trkpt lat="44.06769" lon="6.38727">
        <ele>947</ele>
        <time>2011-08-18T12:27:24Z</time>
      </trkpt>
      <trkpt lat="44.06742" lon="6.38785">
        <ele>945</ele>
        <time>2011-08-18T12:27:40Z</time>
      </trkpt>
      <trkpt lat="44.06716" lon="6.38837">
        <ele>944</ele>
        <time>2011-08-18T12:27:49Z</time>
      </trkpt>
      <trkpt lat="44.06699" lon="6.38849">
        <ele>943</ele>
        <time>2011-08-18T12:27:53Z</time>
      </trkpt>
      <trkpt lat="44.06684" lon="6.38869">
        <ele>942</ele>
        <time>2011-08-18T12:27:57Z</time>
      </trkpt>
      <trkpt lat="44.0668" lon="6.38911">
        <ele>942</ele>
        <time>2011-08-18T12:28:06Z</time>
      </trkpt>
      <trkpt lat="44.06703" lon="6.38938">
        <ele>942</ele>
        <time>2011-08-18T12:28:15Z</time>
      </trkpt>
      <trkpt lat="44.06695" lon="6.38953">
        <ele>942</ele>
        <time>2011-08-18T12:28:21Z</time>
      </trkpt>
      <trkpt lat="44.06675" lon="6.38952">
        <ele>941</ele>
        <time>2011-08-18T12:28:27Z</time>
      </trkpt>
      <trkpt lat="44.06672" lon="6.38954">
        <ele>941</ele>
        <time>2011-08-18T12:28:38Z</time>
      </trkpt>
      <trkpt lat="44.0666" lon="6.38946">
        <ele>940</ele>
        <time>2011-08-18T12:28:46Z</time>
      </trkpt>
      <trkpt lat="44.06651" lon="6.38948">
        <ele>939</ele>
        <time>2011-08-18T12:28:57Z</time>
      </trkpt>
      <trkpt lat="44.06653" lon="6.38949">
        <ele>939</ele>
        <time>2011-08-18T12:29:03Z</time>
      </trkpt>
      <trkpt lat="44.06677" lon="6.3896">
        <ele>941</ele>
        <time>2011-08-18T12:29:14Z</time>
      </trkpt>
      <trkpt lat="44.06692" lon="6.38975">
        <ele>941</ele>
        <time>2011-08-18T12:29:19Z</time>
      </trkpt>
      <trkpt lat="44.06707" lon="6.38972">
        <ele>942</ele>
        <time>2011-08-18T12:29:23Z</time>
      </trkpt>
      <trkpt lat="44.06717" lon="6.38966">
        <ele>942</ele>
        <time>2011-08-18T12:29:26Z</time>
      </trkpt>
      <trkpt lat="44.06724" lon="6.38969">
        <ele>942</ele>
        <time>2011-08-18T12:29:30Z</time>
      </trkpt>
      <trkpt lat="44.0672" lon="6.38973">
        <ele>942</ele>
        <time>2011-08-18T12:29:32Z</time>
      </trkpt>
      <trkpt lat="44.06663" lon="6.3904">
        <ele>938</ele>
        <time>2011-08-18T12:29:46Z</time>
      </trkpt>
      <trkpt lat="44.0661" lon="6.39103">
        <ele>936</ele>
        <time>2011-08-18T12:29:57Z</time>
      </trkpt>
      <trkpt lat="44.06599" lon="6.39137">
        <ele>935</ele>
        <time>2011-08-18T12:30:03Z</time>
      </trkpt>
      <trkpt lat="44.06594" lon="6.39176">
        <ele>932</ele>
        <time>2011-08-18T12:30:08Z</time>
      </trkpt>
      <trkpt lat="44.06581" lon="6.39216">
        <ele>929</ele>
        <time>2011-08-18T12:30:13Z</time>
      </trkpt>
      <trkpt lat="44.06559" lon="6.39262">
        <ele>929</ele>
        <time>2011-08-18T12:30:20Z</time>
      </trkpt>
      <trkpt lat="44.06551" lon="6.39285">
        <ele>929</ele>
        <time>2011-08-18T12:30:24Z</time>
      </trkpt>
      <trkpt lat="44.06533" lon="6.39303">
        <ele>929</ele>
        <time>2011-08-18T12:30:29Z</time>
      </trkpt>
      <trkpt lat="44.06515" lon="6.39359">
        <ele>931</ele>
        <time>2011-08-18T12:30:40Z</time>
      </trkpt>
      <trkpt lat="44.06499" lon="6.39479">
        <ele>933</ele>
        <time>2011-08-18T12:31:03Z</time>
      </trkpt>
      <trkpt lat="44.06477" lon="6.39522">
        <ele>935</ele>
        <time>2011-08-18T12:31:16Z</time>
      </trkpt>
      <trkpt lat="44.06459" lon="6.39526">
        <ele>935</ele>
        <time>2011-08-18T12:31:21Z</time>
      </trkpt>
      <trkpt lat="44.06434" lon="6.39533">
        <ele>935</ele>
        <time>2011-08-18T12:31:27Z</time>
      </trkpt>
      <trkpt lat="44.06419" lon="6.3953">
        <ele>935</ele>
        <time>2011-08-18T12:31:31Z</time>
      </trkpt>
      <trkpt lat="44.06407" lon="6.39522">
        <ele>934</ele>
        <time>2011-08-18T12:31:35Z</time>
      </trkpt>
      <trkpt lat="44.06386" lon="6.39528">
        <ele>934</ele>
        <time>2011-08-18T12:31:41Z</time>
      </trkpt>
      <trkpt lat="44.06345" lon="6.39604">
        <ele>936</ele>
        <time>2011-08-18T12:32:01Z</time>
      </trkpt>
      <trkpt lat="44.06319" lon="6.39702">
        <ele>941</ele>
        <time>2011-08-18T12:32:23Z</time>
      </trkpt>
      <trkpt lat="44.06316" lon="6.39751">
        <ele>941</ele>
        <time>2011-08-18T12:32:34Z</time>
      </trkpt>
      <trkpt lat="44.0631" lon="6.39839">
        <ele>944</ele>
        <time>2011-08-18T12:32:54Z</time>
      </trkpt>
      <trkpt lat="44.06316" lon="6.39896">
        <ele>945</ele>
        <time>2011-08-18T12:33:07Z</time>
      </trkpt>
      <trkpt lat="44.06302" lon="6.3995">
        <ele>947</ele>
        <time>2011-08-18T12:33:20Z</time>
      </trkpt>
      <trkpt lat="44.06279" lon="6.40001">
        <ele>948</ele>
        <time>2011-08-18T12:33:34Z</time>
      </trkpt>
      <trkpt lat="44.06267" lon="6.40064">
        <ele>949</ele>
        <time>2011-08-18T12:33:50Z</time>
      </trkpt>
      <trkpt lat="44.06262" lon="6.40129">
        <ele>951</ele>
        <time>2011-08-18T12:34:06Z</time>
      </trkpt>
      <trkpt lat="44.06253" lon="6.40184">
        <ele>953</ele>
        <time>2011-08-18T12:34:21Z</time>
      </trkpt>
      <trkpt lat="44.06252" lon="6.40249">
        <ele>955</ele>
        <time>2011-08-18T12:34:38Z</time>
      </trkpt>
      <trkpt lat="44.06266" lon="6.40314">
        <ele>958</ele>
        <time>2011-08-18T12:34:54Z</time>
      </trkpt>
      <trkpt lat="44.06274" lon="6.40374">
        <ele>962</ele>
        <time>2011-08-18T12:35:10Z</time>
      </trkpt>
      <trkpt lat="44.06298" lon="6.40424">
        <ele>967</ele>
        <time>2011-08-18T12:35:27Z</time>
      </trkpt>
      <trkpt lat="44.06315" lon="6.4048">
        <ele>970</ele>
        <time>2011-08-18T12:35:44Z</time>
      </trkpt>
      <trkpt lat="44.06325" lon="6.40536">
        <ele>973</ele>
        <time>2011-08-18T12:36:01Z</time>
      </trkpt>
      <trkpt lat="44.06327" lon="6.40604">
        <ele>974</ele>
        <time>2011-08-18T12:36:19Z</time>
      </trkpt>
      <trkpt lat="44.06332" lon="6.40663">
        <ele>974</ele>
        <time>2011-08-18T12:36:35Z</time>
      </trkpt>
      <trkpt lat="44.06325" lon="6.40696">
        <ele>975</ele>
        <time>2011-08-18T12:36:46Z</time>
      </trkpt>
      <trkpt lat="44.06305" lon="6.40711">
        <ele>975</ele>
        <time>2011-08-18T12:36:57Z</time>
      </trkpt>
      <trkpt lat="44.06296" lon="6.4072">
        <ele>975</ele>
        <time>2011-08-18T12:37:10Z</time>
      </trkpt>
      <trkpt lat="44.06295" lon="6.40721">
        <ele>975</ele>
        <time>2011-08-18T12:37:13Z</time>
      </trkpt>
      <trkpt lat="44.06282" lon="6.40768">
        <ele>978</ele>
        <time>2011-08-18T12:37:30Z</time>
      </trkpt>
      <trkpt lat="44.06285" lon="6.40786">
        <ele>978</ele>
        <time>2011-08-18T12:37:43Z</time>
      </trkpt>
      <trkpt lat="44.06284" lon="6.40791">
        <ele>978</ele>
        <time>2011-08-18T12:37:59Z</time>
      </trkpt>
      <trkpt lat="44.06285" lon="6.40797">
        <ele>979</ele>
        <time>2011-08-18T12:38:14Z</time>
      </trkpt>
      <trkpt lat="44.06285" lon="6.40817">
        <ele>979</ele>
        <time>2011-08-18T12:38:27Z</time>
      </trkpt>
      <trkpt lat="44.0629" lon="6.4087">
        <ele>984</ele>
        <time>2011-08-18T12:38:49Z</time>
      </trkpt>
      <trkpt lat="44.06331" lon="6.40878">
        <ele>984</ele>
        <time>2011-08-18T12:39:04Z</time>
      </trkpt>
      <trkpt lat="44.06368" lon="6.40894">
        <ele>985</ele>
        <time>2011-08-18T12:39:19Z</time>
      </trkpt>
      <trkpt lat="44.06391" lon="6.4089">
        <ele>985</ele>
        <time>2011-08-18T12:39:28Z</time>
      </trkpt>
      <trkpt lat="44.06417" lon="6.40871">
        <ele>985</ele>
        <time>2011-08-18T12:39:38Z</time>
      </trkpt>
      <trkpt lat="44.06444" lon="6.40878">
        <ele>986</ele>
        <time>2011-08-18T12:39:51Z</time>
      </trkpt>
      <trkpt lat="44.06457" lon="6.40915">
        <ele>987</ele>
        <time>2011-08-18T12:40:05Z</time>
      </trkpt>
      <trkpt lat="44.06494" lon="6.40963">
        <ele>991</ele>
        <time>2011-08-18T12:40:27Z</time>
      </trkpt>
      <trkpt lat="44.06529" lon="6.40994">
        <ele>994</ele>
        <time>2011-08-18T12:40:48Z</time>
      </trkpt>
      <trkpt lat="44.06564" lon="6.41012">
        <ele>999</ele>
        <time>2011-08-18T12:41:07Z</time>
      </trkpt>
      <trkpt lat="44.06606" lon="6.41031">
        <ele>1002</ele>
        <time>2011-08-18T12:41:27Z</time>
      </trkpt>
      <trkpt lat="44.06646" lon="6.41042">
        <ele>1003</ele>
        <time>2011-08-18T12:41:46Z</time>
      </trkpt>
      <trkpt lat="44.06672" lon="6.41066">
        <ele>1007</ele>
        <time>2011-08-18T12:42:02Z</time>
      </trkpt>
      <trkpt lat="44.06692" lon="6.41098">
        <ele>1010</ele>
        <time>2011-08-18T12:42:17Z</time>
      </trkpt>
      <trkpt lat="44.06717" lon="6.41128">
        <ele>1012</ele>
        <time>2011-08-18T12:42:34Z</time>
      </trkpt>
      <trkpt lat="44.06725" lon="6.41139">
        <ele>1012</ele>
        <time>2011-08-18T12:42:40Z</time>
      </trkpt>
      <trkpt lat="44.06729" lon="6.41144">
        <ele>1012</ele>
        <time>2011-08-18T12:42:44Z</time>
      </trkpt>
      <trkpt lat="44.06738" lon="6.41151">
        <ele>1013</ele>
        <time>2011-08-18T12:42:57Z</time>
      </trkpt>
      <trkpt lat="44.06745" lon="6.41156">
        <ele>1013</ele>
        <time>2011-08-18T12:43:04Z</time>
      </trkpt>
      <trkpt lat="44.06747" lon="6.41156">
        <ele>1013</ele>
        <time>2011-08-18T12:43:06Z</time>
      </trkpt>
      <trkpt lat="44.06753" lon="6.41158">
        <ele>1015</ele>
        <time>2011-08-18T12:43:12Z</time>
      </trkpt>
      <trkpt lat="44.06771" lon="6.41167">
        <ele>1017</ele>
        <time>2011-08-18T12:43:32Z</time>
      </trkpt>
      <trkpt lat="44.06781" lon="6.41175">
        <ele>1018</ele>
        <time>2011-08-18T12:43:44Z</time>
      </trkpt>
      <trkpt lat="44.06787" lon="6.4118">
        <ele>1018</ele>
        <time>2011-08-18T12:43:55Z</time>
      </trkpt>
      <trkpt lat="44.06789" lon="6.41183">
        <ele>1018</ele>
        <time>2011-08-18T12:43:58Z</time>
      </trkpt>
      <trkpt lat="44.06793" lon="6.41185">
        <ele>1018</ele>
        <time>2011-08-18T12:44:02Z</time>
      </trkpt>
      <trkpt lat="44.06793" lon="6.41187">
        <ele>1019</ele>
        <time>2011-08-18T12:44:04Z</time>
      </trkpt>
      <trkpt lat="44.06802" lon="6.41192">
        <ele>1019</ele>
        <time>2011-08-18T12:44:14Z</time>
      </trkpt>
      <trkpt lat="44.06808" lon="6.41195">
        <ele>1019</ele>
        <time>2011-08-18T12:44:21Z</time>
      </trkpt>
      <trkpt lat="44.06817" lon="6.41198">
        <ele>1019</ele>
        <time>2011-08-18T12:44:37Z</time>
      </trkpt>
      <trkpt lat="44.06845" lon="6.41217">
        <ele>1027</ele>
        <time>2011-08-18T12:44:54Z</time>
      </trkpt>
      <trkpt lat="44.06878" lon="6.41242">
        <ele>1029</ele>
        <time>2011-08-18T12:45:13Z</time>
      </trkpt>
      <trkpt lat="44.06909" lon="6.41236">
        <ele>1032</ele>
        <time>2011-08-18T12:45:29Z</time>
      </trkpt>
      <trkpt lat="44.0694" lon="6.41241">
        <ele>1039</ele>
        <time>2011-08-18T12:45:46Z</time>
      </trkpt>
      <trkpt lat="44.06966" lon="6.41248">
        <ele>1040</ele>
        <time>2011-08-18T12:46:01Z</time>
      </trkpt>
      <trkpt lat="44.06968" lon="6.41249">
        <ele>1040</ele>
        <time>2011-08-18T12:46:02Z</time>
      </trkpt>
      <trkpt lat="44.06991" lon="6.41254">
        <ele>1041</ele>
        <time>2011-08-18T12:46:17Z</time>
      </trkpt>
      <trkpt lat="44.07026" lon="6.41264">
        <ele>1045</ele>
        <time>2011-08-18T12:46:38Z</time>
      </trkpt>
      <trkpt lat="44.07037" lon="6.41249">
        <ele>1048</ele>
        <time>2011-08-18T12:46:51Z</time>
      </trkpt>
      <trkpt lat="44.07037" lon="6.41243">
        <ele>1048</ele>
        <time>2011-08-18T12:47:07Z</time>
      </trkpt>
      <trkpt lat="44.07039" lon="6.41221">
        <ele>1049</ele>
        <time>2011-08-18T12:47:15Z</time>
      </trkpt>
      <trkpt lat="44.07036" lon="6.41208">
        <ele>1049</ele>
        <time>2011-08-18T12:47:20Z</time>
      </trkpt>
      <trkpt lat="44.07011" lon="6.41164">
        <ele>1050</ele>
        <time>2011-08-18T12:47:42Z</time>
      </trkpt>
      <trkpt lat="44.07009" lon="6.41156">
        <ele>1050</ele>
        <time>2011-08-18T12:47:45Z</time>
      </trkpt>
      <trkpt lat="44.07009" lon="6.41154">
        <ele>1050</ele>
        <time>2011-08-18T12:47:47Z</time>
      </trkpt>
      <trkpt lat="44.07015" lon="6.41159">
        <ele>1051</ele>
        <time>2011-08-18T12:47:51Z</time>
      </trkpt>
      <trkpt lat="44.07051" lon="6.4117">
        <ele>1052</ele>
        <time>2011-08-18T12:48:06Z</time>
      </trkpt>
      <trkpt lat="44.07084" lon="6.41194">
        <ele>1060</ele>
        <time>2011-08-18T12:48:21Z</time>
      </trkpt>
      <trkpt lat="44.0709" lon="6.41245">
        <ele>1054</ele>
        <time>2011-08-18T12:48:35Z</time>
      </trkpt>
      <trkpt lat="44.07101" lon="6.41312">
        <ele>1057</ele>
        <time>2011-08-18T12:48:53Z</time>
      </trkpt>
      <trkpt lat="44.07087" lon="6.41338">
        <ele>1055</ele>
        <time>2011-08-18T12:49:00Z</time>
      </trkpt>
      <trkpt lat="44.07057" lon="6.41345">
        <ele>1051</ele>
        <time>2011-08-18T12:49:07Z</time>
      </trkpt>
      <trkpt lat="44.07032" lon="6.41372">
        <ele>1050</ele>
        <time>2011-08-18T12:49:15Z</time>
      </trkpt>
      <trkpt lat="44.06992" lon="6.41466">
        <ele>1047</ele>
        <time>2011-08-18T12:49:34Z</time>
      </trkpt>
      <trkpt lat="44.06977" lon="6.41512">
        <ele>1052</ele>
        <time>2011-08-18T12:49:42Z</time>
      </trkpt>
      <trkpt lat="44.06953" lon="6.41538">
        <ele>1053</ele>
        <time>2011-08-18T12:49:49Z</time>
      </trkpt>
      <trkpt lat="44.06945" lon="6.41538">
        <ele>1053</ele>
        <time>2011-08-18T12:49:51Z</time>
      </trkpt>
      <trkpt lat="44.06923" lon="6.41528">
        <ele>1052</ele>
        <time>2011-08-18T12:49:57Z</time>
      </trkpt>
      <trkpt lat="44.0689" lon="6.41503">
        <ele>1053</ele>
        <time>2011-08-18T12:50:11Z</time>
      </trkpt>
      <trkpt lat="44.06857" lon="6.41533">
        <ele>1057</ele>
        <time>2011-08-18T12:50:27Z</time>
      </trkpt>
      <trkpt lat="44.06827" lon="6.41543">
        <ele>1065</ele>
        <time>2011-08-18T12:50:43Z</time>
      </trkpt>
      <trkpt lat="44.06814" lon="6.41519">
        <ele>1062</ele>
        <time>2011-08-18T12:50:55Z</time>
      </trkpt>
      <trkpt lat="44.06797" lon="6.41489">
        <ele>1053</ele>
        <time>2011-08-18T12:51:10Z</time>
      </trkpt>
      <trkpt lat="44.06758" lon="6.41501">
        <ele>1065</ele>
        <time>2011-08-18T12:51:29Z</time>
      </trkpt>
      <trkpt lat="44.06719" lon="6.415">
        <ele>1070</ele>
        <time>2011-08-18T12:51:48Z</time>
      </trkpt>
      <trkpt lat="44.06689" lon="6.41517">
        <ele>1071</ele>
        <time>2011-08-18T12:52:07Z</time>
      </trkpt>
      <trkpt lat="44.0669" lon="6.41568">
        <ele>1076</ele>
        <time>2011-08-18T12:52:26Z</time>
      </trkpt>
      <trkpt lat="44.06656" lon="6.4159">
        <ele>1084</ele>
        <time>2011-08-18T12:52:45Z</time>
      </trkpt>
      <trkpt lat="44.0662" lon="6.41592">
        <ele>1087</ele>
        <time>2011-08-18T12:53:03Z</time>
      </trkpt>
      <trkpt lat="44.06584" lon="6.4159">
        <ele>1084</ele>
        <time>2011-08-18T12:53:22Z</time>
      </trkpt>
      <trkpt lat="44.06559" lon="6.41612">
        <ele>1086</ele>
        <time>2011-08-18T12:53:39Z</time>
      </trkpt>
      <trkpt lat="44.06551" lon="6.4164">
        <ele>1088</ele>
        <time>2011-08-18T12:53:54Z</time>
      </trkpt>
      <trkpt lat="44.06552" lon="6.41642">
        <ele>1088</ele>
        <time>2011-08-18T13:05:33Z</time>
      </trkpt>
      <trkpt lat="44.06551" lon="6.41646">
        <ele>1089</ele>
        <time>2011-08-18T13:05:38Z</time>
      </trkpt>
      <trkpt lat="44.06532" lon="6.41679">
        <ele>1096</ele>
        <time>2011-08-18T13:05:54Z</time>
      </trkpt>
      <trkpt lat="44.06509" lon="6.41738">
        <ele>1098</ele>
        <time>2011-08-18T13:06:17Z</time>
      </trkpt>
      <trkpt lat="44.06487" lon="6.41788">
        <ele>1098</ele>
        <time>2011-08-18T13:06:38Z</time>
      </trkpt>
      <trkpt lat="44.06463" lon="6.4183">
        <ele>1098</ele>
        <time>2011-08-18T13:06:57Z</time>
      </trkpt>
      <trkpt lat="44.06439" lon="6.41862">
        <ele>1102</ele>
        <time>2011-08-18T13:07:13Z</time>
      </trkpt>
      <trkpt lat="44.06433" lon="6.41914">
        <ele>1103</ele>
        <time>2011-08-18T13:07:31Z</time>
      </trkpt>
      <trkpt lat="44.06415" lon="6.41963">
        <ele>1102</ele>
        <time>2011-08-18T13:07:50Z</time>
      </trkpt>
      <trkpt lat="44.06401" lon="6.41995">
        <ele>1106</ele>
        <time>2011-08-18T13:08:03Z</time>
      </trkpt>
      <trkpt lat="44.06394" lon="6.42037">
        <ele>1113</ele>
        <time>2011-08-18T13:08:21Z</time>
      </trkpt>
      <trkpt lat="44.06414" lon="6.42023">
        <ele>1113</ele>
        <time>2011-08-18T13:08:33Z</time>
      </trkpt>
      <trkpt lat="44.06432" lon="6.41968">
        <ele>1114</ele>
        <time>2011-08-18T13:08:51Z</time>
      </trkpt>
      <trkpt lat="44.06476" lon="6.41945">
        <ele>1116</ele>
        <time>2011-08-18T13:09:08Z</time>
      </trkpt>
      <trkpt lat="44.06521" lon="6.41918">
        <ele>1122</ele>
        <time>2011-08-18T13:09:28Z</time>
      </trkpt>
      <trkpt lat="44.06558" lon="6.41874">
        <ele>1118</ele>
        <time>2011-08-18T13:09:50Z</time>
      </trkpt>
      <trkpt lat="44.06603" lon="6.41853">
        <ele>1125</ele>
        <time>2011-08-18T13:10:11Z</time>
      </trkpt>
      <trkpt lat="44.06646" lon="6.41863">
        <ele>1128</ele>
        <time>2011-08-18T13:10:30Z</time>
      </trkpt>
      <trkpt lat="44.0669" lon="6.41854">
        <ele>1133</ele>
        <time>2011-08-18T13:10:50Z</time>
      </trkpt>
      <trkpt lat="44.06734" lon="6.4183">
        <ele>1127</ele>
        <time>2011-08-18T13:11:11Z</time>
      </trkpt>
      <trkpt lat="44.06769" lon="6.41843">
        <ele>1133</ele>
        <time>2011-08-18T13:11:29Z</time>
      </trkpt>
      <trkpt lat="44.06774" lon="6.41888">
        <ele>1137</ele>
        <time>2011-08-18T13:11:46Z</time>
      </trkpt>
      <trkpt lat="44.06745" lon="6.41932">
        <ele>1145</ele>
        <time>2011-08-18T13:12:06Z</time>
      </trkpt>
      <trkpt lat="44.06721" lon="6.41969">
        <ele>1147</ele>
        <time>2011-08-18T13:12:24Z</time>
      </trkpt>
      <trkpt lat="44.06697" lon="6.42006">
        <ele>1155</ele>
        <time>2011-08-18T13:12:40Z</time>
      </trkpt>
      <trkpt lat="44.06667" lon="6.42055">
        <ele>1159</ele>
        <time>2011-08-18T13:12:59Z</time>
      </trkpt>
      <trkpt lat="44.06627" lon="6.4209">
        <ele>1165</ele>
        <time>2011-08-18T13:13:18Z</time>
      </trkpt>
      <trkpt lat="44.06594" lon="6.42112">
        <ele>1164</ele>
        <time>2011-08-18T13:13:34Z</time>
      </trkpt>
      <trkpt lat="44.06549" lon="6.42144">
        <ele>1160</ele>
        <time>2011-08-18T13:13:57Z</time>
      </trkpt>
      <trkpt lat="44.06522" lon="6.42176">
        <ele>1166</ele>
        <time>2011-08-18T13:14:12Z</time>
      </trkpt>
      <trkpt lat="44.06527" lon="6.42228">
        <ele>1172</ele>
        <time>2011-08-18T13:14:27Z</time>
      </trkpt>
      <trkpt lat="44.06512" lon="6.42267">
        <ele>1181</ele>
        <time>2011-08-18T13:14:41Z</time>
      </trkpt>
      <trkpt lat="44.06482" lon="6.42308">
        <ele>1179</ele>
        <time>2011-08-18T13:15:01Z</time>
      </trkpt>
      <trkpt lat="44.06441" lon="6.42329">
        <ele>1176</ele>
        <time>2011-08-18T13:15:20Z</time>
      </trkpt>
      <trkpt lat="44.06394" lon="6.42354">
        <ele>1182</ele>
        <time>2011-08-18T13:15:43Z</time>
      </trkpt>
      <trkpt lat="44.06378" lon="6.42402">
        <ele>1187</ele>
        <time>2011-08-18T13:15:59Z</time>
      </trkpt>
      <trkpt lat="44.06358" lon="6.42452">
        <ele>1199</ele>
        <time>2011-08-18T13:16:19Z</time>
      </trkpt>
      <trkpt lat="44.06327" lon="6.42492">
        <ele>1196</ele>
        <time>2011-08-18T13:16:38Z</time>
      </trkpt>
      <trkpt lat="44.0629" lon="6.42509">
        <ele>1203</ele>
        <time>2011-08-18T13:16:55Z</time>
      </trkpt>
      <trkpt lat="44.06253" lon="6.42535">
        <ele>1204</ele>
        <time>2011-08-18T13:17:13Z</time>
      </trkpt>
      <trkpt lat="44.06217" lon="6.4252">
        <ele>1203</ele>
        <time>2011-08-18T13:17:29Z</time>
      </trkpt>
      <trkpt lat="44.06184" lon="6.42526">
        <ele>1204</ele>
        <time>2011-08-18T13:17:45Z</time>
      </trkpt>
      <trkpt lat="44.06147" lon="6.42548">
        <ele>1207</ele>
        <time>2011-08-18T13:18:04Z</time>
      </trkpt>
      <trkpt lat="44.06113" lon="6.4257">
        <ele>1209</ele>
        <time>2011-08-18T13:18:22Z</time>
      </trkpt>
      <trkpt lat="44.06068" lon="6.42596">
        <ele>1220</ele>
        <time>2011-08-18T13:18:45Z</time>
      </trkpt>
      <trkpt lat="44.06043" lon="6.42637">
        <ele>1225</ele>
        <time>2011-08-18T13:19:03Z</time>
      </trkpt>
      <trkpt lat="44.06015" lon="6.42646">
        <ele>1226</ele>
        <time>2011-08-18T13:19:18Z</time>
      </trkpt>
      <trkpt lat="44.05972" lon="6.42638">
        <ele>1222</ele>
        <time>2011-08-18T13:19:35Z</time>
      </trkpt>
      <trkpt lat="44.05924" lon="6.4265">
        <ele>1227</ele>
        <time>2011-08-18T13:19:55Z</time>
      </trkpt>
      <trkpt lat="44.0588" lon="6.42657">
        <ele>1228</ele>
        <time>2011-08-18T13:20:13Z</time>
      </trkpt>
      <trkpt lat="44.05815" lon="6.42665">
        <ele>1232</ele>
        <time>2011-08-18T13:20:38Z</time>
      </trkpt>
      <trkpt lat="44.05787" lon="6.42685">
        <ele>1248</ele>
        <time>2011-08-18T13:20:53Z</time>
      </trkpt>
      <trkpt lat="44.05751" lon="6.42692">
        <ele>1248</ele>
        <time>2011-08-18T13:21:10Z</time>
      </trkpt>
      <trkpt lat="44.05718" lon="6.42678">
        <ele>1252</ele>
        <time>2011-08-18T13:21:25Z</time>
      </trkpt>
      <trkpt lat="44.0568" lon="6.42678">
        <ele>1253</ele>
        <time>2011-08-18T13:21:43Z</time>
      </trkpt>
      <trkpt lat="44.05668" lon="6.42677">
        <ele>1251</ele>
        <time>2011-08-18T13:21:57Z</time>
      </trkpt>
      <trkpt lat="44.05669" lon="6.42676">
        <ele>1251</ele>
        <time>2011-08-18T13:22:52Z</time>
      </trkpt>
      <trkpt lat="44.05668" lon="6.42677">
        <ele>1251</ele>
        <time>2011-08-18T13:23:50Z</time>
      </trkpt>
      <trkpt lat="44.05655" lon="6.42672">
        <ele>1256</ele>
        <time>2011-08-18T13:24:20Z</time>
      </trkpt>
      <trkpt lat="44.05614" lon="6.42665">
        <ele>1252</ele>
        <time>2011-08-18T13:24:38Z</time>
      </trkpt>
      <trkpt lat="44.0559" lon="6.42632">
        <ele>1252</ele>
        <time>2011-08-18T13:24:54Z</time>
      </trkpt>
      <trkpt lat="44.05571" lon="6.42602">
        <ele>1258</ele>
        <time>2011-08-18T13:25:09Z</time>
      </trkpt>
      <trkpt lat="44.05533" lon="6.42595">
        <ele>1261</ele>
        <time>2011-08-18T13:25:27Z</time>
      </trkpt>
      <trkpt lat="44.05505" lon="6.42604">
        <ele>1262</ele>
        <time>2011-08-18T13:25:42Z</time>
      </trkpt>
      <trkpt lat="44.05482" lon="6.42623">
        <ele>1268</ele>
        <time>2011-08-18T13:25:56Z</time>
      </trkpt>
      <trkpt lat="44.05463" lon="6.42651">
        <ele>1270</ele>
        <time>2011-08-18T13:26:11Z</time>
      </trkpt>
      <trkpt lat="44.05444" lon="6.4267">
        <ele>1276</ele>
        <time>2011-08-18T13:26:27Z</time>
      </trkpt>
      <trkpt lat="44.05439" lon="6.42669">
        <ele>1275</ele>
        <time>2011-08-18T13:26:54Z</time>
      </trkpt>
      <trkpt lat="44.05449" lon="6.42672">
        <ele>1276</ele>
        <time>2011-08-18T13:27:28Z</time>
      </trkpt>
      <trkpt lat="44.0545" lon="6.42671">
        <ele>1276</ele>
        <time>2011-08-18T13:28:28Z</time>
      </trkpt>
      <trkpt lat="44.05444" lon="6.42676">
        <ele>1276</ele>
        <time>2011-08-18T13:30:51Z</time>
      </trkpt>
      <trkpt lat="44.05442" lon="6.42676">
        <ele>1276</ele>
        <time>2011-08-18T13:31:00Z</time>
      </trkpt>
      <trkpt lat="44.05437" lon="6.4268">
        <ele>1276</ele>
        <time>2011-08-18T13:31:04Z</time>
      </trkpt>
      <trkpt lat="44.05421" lon="6.42695">
        <ele>1276</ele>
        <time>2011-08-18T13:31:13Z</time>
      </trkpt>
      <trkpt lat="44.05393" lon="6.42733">
        <ele>1275</ele>
        <time>2011-08-18T13:31:26Z</time>
      </trkpt>
      <trkpt lat="44.05346" lon="6.42808">
        <ele>1273</ele>
        <time>2011-08-18T13:31:37Z</time>
      </trkpt>
      <trkpt lat="44.05333" lon="6.42836">
        <ele>1265</ele>
        <time>2011-08-18T13:31:40Z</time>
      </trkpt>
      <trkpt lat="44.05312" lon="6.42873">
        <ele>1262</ele>
        <time>2011-08-18T13:31:44Z</time>
      </trkpt>
      <trkpt lat="44.05297" lon="6.42919">
        <ele>1259</ele>
        <time>2011-08-18T13:31:48Z</time>
      </trkpt>
      <trkpt lat="44.05292" lon="6.42973">
        <ele>1257</ele>
        <time>2011-08-18T13:31:52Z</time>
      </trkpt>
      <trkpt lat="44.05306" lon="6.43033">
        <ele>1250</ele>
        <time>2011-08-18T13:31:57Z</time>
      </trkpt>
      <trkpt lat="44.05326" lon="6.43077">
        <ele>1249</ele>
        <time>2011-08-18T13:32:01Z</time>
      </trkpt>
      <trkpt lat="44.05391" lon="6.43162">
        <ele>1249</ele>
        <time>2011-08-18T13:32:10Z</time>
      </trkpt>
      <trkpt lat="44.05398" lon="6.43171">
        <ele>1239</ele>
        <time>2011-08-18T13:32:11Z</time>
      </trkpt>
      <trkpt lat="44.05426" lon="6.43263">
        <ele>1242</ele>
        <time>2011-08-18T13:32:19Z</time>
      </trkpt>
      <trkpt lat="44.05418" lon="6.43286">
        <ele>1245</ele>
        <time>2011-08-18T13:32:21Z</time>
      </trkpt>
      <trkpt lat="44.0541" lon="6.43311">
        <ele>1228</ele>
        <time>2011-08-18T13:32:23Z</time>
      </trkpt>
      <trkpt lat="44.05407" lon="6.43353">
        <ele>1228</ele>
        <time>2011-08-18T13:32:26Z</time>
      </trkpt>
      <trkpt lat="44.0538" lon="6.4341">
        <ele>1221</ele>
        <time>2011-08-18T13:32:32Z</time>
      </trkpt>
      <trkpt lat="44.05367" lon="6.43407">
        <ele>1218</ele>
        <time>2011-08-18T13:32:34Z</time>
      </trkpt>
      <trkpt lat="44.05354" lon="6.43401">
        <ele>1215</ele>
        <time>2011-08-18T13:32:36Z</time>
      </trkpt>
      <trkpt lat="44.05339" lon="6.43431">
        <ele>1212</ele>
        <time>2011-08-18T13:32:41Z</time>
      </trkpt>
      <trkpt lat="44.05331" lon="6.43519">
        <ele>1203</ele>
        <time>2011-08-18T13:32:50Z</time>
      </trkpt>
      <trkpt lat="44.05336" lon="6.43566">
        <ele>1210</ele>
        <time>2011-08-18T13:32:54Z</time>
      </trkpt>
      <trkpt lat="44.05353" lon="6.43676">
        <ele>1189</ele>
        <time>2011-08-18T13:33:03Z</time>
      </trkpt>
      <trkpt lat="44.05375" lon="6.43696">
        <ele>1189</ele>
        <time>2011-08-18T13:33:08Z</time>
      </trkpt>
      <trkpt lat="44.05438" lon="6.43686">
        <ele>1193</ele>
        <time>2011-08-18T13:33:17Z</time>
      </trkpt>
      <trkpt lat="44.05457" lon="6.43674">
        <ele>1192</ele>
        <time>2011-08-18T13:33:20Z</time>
      </trkpt>
      <trkpt lat="44.05483" lon="6.43677">
        <ele>1192</ele>
        <time>2011-08-18T13:33:24Z</time>
      </trkpt>
      <trkpt lat="44.05512" lon="6.43675">
        <ele>1191</ele>
        <time>2011-08-18T13:33:28Z</time>
      </trkpt>
      <trkpt lat="44.05519" lon="6.43697">
        <ele>1185</ele>
        <time>2011-08-18T13:33:35Z</time>
      </trkpt>
      <trkpt lat="44.05514" lon="6.43698">
        <ele>1185</ele>
        <time>2011-08-18T13:33:36Z</time>
      </trkpt>
      <trkpt lat="44.05471" lon="6.43712">
        <ele>1187</ele>
        <time>2011-08-18T13:33:42Z</time>
      </trkpt>
      <trkpt lat="44.05439" lon="6.43733">
        <ele>1184</ele>
        <time>2011-08-18T13:33:46Z</time>
      </trkpt>
      <trkpt lat="44.05356" lon="6.4377">
        <ele>1170</ele>
        <time>2011-08-18T13:33:55Z</time>
      </trkpt>
      <trkpt lat="44.05318" lon="6.43776">
        <ele>1167</ele>
        <time>2011-08-18T13:33:59Z</time>
      </trkpt>
      <trkpt lat="44.05286" lon="6.43765">
        <ele>1166</ele>
        <time>2011-08-18T13:34:03Z</time>
      </trkpt>
      <trkpt lat="44.05275" lon="6.43787">
        <ele>1164</ele>
        <time>2011-08-18T13:34:09Z</time>
      </trkpt>
      <trkpt lat="44.05285" lon="6.4379">
        <ele>1164</ele>
        <time>2011-08-18T13:34:11Z</time>
      </trkpt>
      <trkpt lat="44.05298" lon="6.43793">
        <ele>1164</ele>
        <time>2011-08-18T13:34:13Z</time>
      </trkpt>
      <trkpt lat="44.05346" lon="6.43806">
        <ele>1164</ele>
        <time>2011-08-18T13:34:19Z</time>
      </trkpt>
      <trkpt lat="44.05409" lon="6.43806">
        <ele>1163</ele>
        <time>2011-08-18T13:34:26Z</time>
      </trkpt>
      <trkpt lat="44.05469" lon="6.43846">
        <ele>1148</ele>
        <time>2011-08-18T13:34:35Z</time>
      </trkpt>
      <trkpt lat="44.05463" lon="6.43882">
        <ele>1147</ele>
        <time>2011-08-18T13:34:39Z</time>
      </trkpt>
      <trkpt lat="44.05437" lon="6.4393">
        <ele>1143</ele>
        <time>2011-08-18T13:34:46Z</time>
      </trkpt>
      <trkpt lat="44.05422" lon="6.43997">
        <ele>1142</ele>
        <time>2011-08-18T13:34:59Z</time>
      </trkpt>
      <trkpt lat="44.05413" lon="6.4404">
        <ele>1144</ele>
        <time>2011-08-18T13:35:10Z</time>
      </trkpt>
      <trkpt lat="44.05385" lon="6.44058">
        <ele>1145</ele>
        <time>2011-08-18T13:35:24Z</time>
      </trkpt>
      <trkpt lat="44.05385" lon="6.44058">
        <ele>1145</ele>
        <time>2011-08-18T13:35:43Z</time>
      </trkpt>
      <trkpt lat="44.05385" lon="6.44058">
        <ele>1145</ele>
        <time>2011-08-18T13:37:33Z</time>
      </trkpt>
      <trkpt lat="44.0536" lon="6.4407">
        <ele>1144</ele>
        <time>2011-08-18T13:37:43Z</time>
      </trkpt>
      <trkpt lat="44.05347" lon="6.44074">
        <ele>1144</ele>
        <time>2011-08-18T13:37:47Z</time>
      </trkpt>
      <trkpt lat="44.05273" lon="6.44101">
        <ele>1143</ele>
        <time>2011-08-18T13:38:02Z</time>
      </trkpt>
      <trkpt lat="44.05182" lon="6.44161">
        <ele>1138</ele>
        <time>2011-08-18T13:38:19Z</time>
      </trkpt>
      <trkpt lat="44.05177" lon="6.44165">
        <ele>1137</ele>
        <time>2011-08-18T13:38:20Z</time>
      </trkpt>
      <trkpt lat="44.05163" lon="6.44186">
        <ele>1137</ele>
        <time>2011-08-18T13:38:24Z</time>
      </trkpt>
      <trkpt lat="44.05151" lon="6.44209">
        <ele>1137</ele>
        <time>2011-08-18T13:38:28Z</time>
      </trkpt>
      <trkpt lat="44.0509" lon="6.44248">
        <ele>1138</ele>
        <time>2011-08-18T13:38:42Z</time>
      </trkpt>
      <trkpt lat="44.05073" lon="6.44256">
        <ele>1141</ele>
        <time>2011-08-18T13:38:46Z</time>
      </trkpt>
      <trkpt lat="44.05065" lon="6.44259">
        <ele>1142</ele>
        <time>2011-08-18T13:38:48Z</time>
      </trkpt>
      <trkpt lat="44.05009" lon="6.44243">
        <ele>1137</ele>
        <time>2011-08-18T13:39:02Z</time>
      </trkpt>
      <trkpt lat="44.04947" lon="6.44248">
        <ele>1137</ele>
        <time>2011-08-18T13:39:17Z</time>
      </trkpt>
      <trkpt lat="44.04938" lon="6.44251">
        <ele>1145</ele>
        <time>2011-08-18T13:39:19Z</time>
      </trkpt>
      <trkpt lat="44.04906" lon="6.4427">
        <ele>1145</ele>
        <time>2011-08-18T13:39:27Z</time>
      </trkpt>
      <trkpt lat="44.04836" lon="6.44302">
        <ele>1147</ele>
        <time>2011-08-18T13:39:44Z</time>
      </trkpt>
      <trkpt lat="44.04819" lon="6.44304">
        <ele>1146</ele>
        <time>2011-08-18T13:39:48Z</time>
      </trkpt>
      <trkpt lat="44.04776" lon="6.443">
        <ele>1145</ele>
        <time>2011-08-18T13:40:01Z</time>
      </trkpt>
      <trkpt lat="44.04719" lon="6.44299">
        <ele>1144</ele>
        <time>2011-08-18T13:40:15Z</time>
      </trkpt>
      <trkpt lat="44.04659" lon="6.44295">
        <ele>1140</ele>
        <time>2011-08-18T13:40:25Z</time>
      </trkpt>
      <trkpt lat="44.04627" lon="6.44281">
        <ele>1137</ele>
        <time>2011-08-18T13:40:30Z</time>
      </trkpt>
      <trkpt lat="44.04582" lon="6.44295">
        <ele>1133</ele>
        <time>2011-08-18T13:40:37Z</time>
      </trkpt>
      <trkpt lat="44.04538" lon="6.44323">
        <ele>1132</ele>
        <time>2011-08-18T13:40:44Z</time>
      </trkpt>
      <trkpt lat="44.04474" lon="6.44358">
        <ele>1129</ele>
        <time>2011-08-18T13:40:53Z</time>
      </trkpt>
      <trkpt lat="44.04444" lon="6.44406">
        <ele>1128</ele>
        <time>2011-08-18T13:40:59Z</time>
      </trkpt>
      <trkpt lat="44.04417" lon="6.44432">
        <ele>1129</ele>
        <time>2011-08-18T13:41:03Z</time>
      </trkpt>
      <trkpt lat="44.04401" lon="6.44439">
        <ele>1124</ele>
        <time>2011-08-18T13:41:05Z</time>
      </trkpt>
      <trkpt lat="44.04334" lon="6.4451">
        <ele>1123</ele>
        <time>2011-08-18T13:41:15Z</time>
      </trkpt>
      <trkpt lat="44.04301" lon="6.44543">
        <ele>1120</ele>
        <time>2011-08-18T13:41:20Z</time>
      </trkpt>
      <trkpt lat="44.04252" lon="6.44564">
        <ele>1117</ele>
        <time>2011-08-18T13:41:27Z</time>
      </trkpt>
      <trkpt lat="44.0422" lon="6.44588">
        <ele>1115</ele>
        <time>2011-08-18T13:41:32Z</time>
      </trkpt>
      <trkpt lat="44.04169" lon="6.44668">
        <ele>1113</ele>
        <time>2011-08-18T13:41:42Z</time>
      </trkpt>
      <trkpt lat="44.04156" lon="6.44706">
        <ele>1110</ele>
        <time>2011-08-18T13:41:46Z</time>
      </trkpt>
      <trkpt lat="44.04147" lon="6.44757">
        <ele>1114</ele>
        <time>2011-08-18T13:41:51Z</time>
      </trkpt>
      <trkpt lat="44.04116" lon="6.44823">
        <ele>1112</ele>
        <time>2011-08-18T13:42:00Z</time>
      </trkpt>
      <trkpt lat="44.04018" lon="6.44893">
        <ele>1104</ele>
        <time>2011-08-18T13:42:14Z</time>
      </trkpt>
      <trkpt lat="44.03996" lon="6.44915">
        <ele>1100</ele>
        <time>2011-08-18T13:42:18Z</time>
      </trkpt>
      <trkpt lat="44.03945" lon="6.45006">
        <ele>1106</ele>
        <time>2011-08-18T13:42:32Z</time>
      </trkpt>
      <trkpt lat="44.03888" lon="6.45079">
        <ele>1102</ele>
        <time>2011-08-18T13:42:47Z</time>
      </trkpt>
      <trkpt lat="44.03822" lon="6.45146">
        <ele>1099</ele>
        <time>2011-08-18T13:43:03Z</time>
      </trkpt>
      <trkpt lat="44.03784" lon="6.45234">
        <ele>1100</ele>
        <time>2011-08-18T13:43:15Z</time>
      </trkpt>
      <trkpt lat="44.03778" lon="6.45275">
        <ele>1102</ele>
        <time>2011-08-18T13:43:21Z</time>
      </trkpt>
      <trkpt lat="44.03776" lon="6.45325">
        <ele>1102</ele>
        <time>2011-08-18T13:43:28Z</time>
      </trkpt>
      <trkpt lat="44.03768" lon="6.45409">
        <ele>1102</ele>
        <time>2011-08-18T13:43:38Z</time>
      </trkpt>
      <trkpt lat="44.03768" lon="6.45462">
        <ele>1105</ele>
        <time>2011-08-18T13:43:43Z</time>
      </trkpt>
      <trkpt lat="44.0376" lon="6.45527">
        <ele>1102</ele>
        <time>2011-08-18T13:43:49Z</time>
      </trkpt>
      <trkpt lat="44.03777" lon="6.45619">
        <ele>1099</ele>
        <time>2011-08-18T13:43:58Z</time>
      </trkpt>
      <trkpt lat="44.03781" lon="6.45655">
        <ele>1097</ele>
        <time>2011-08-18T13:44:01Z</time>
      </trkpt>
      <trkpt lat="44.03809" lon="6.45756">
        <ele>1090</ele>
        <time>2011-08-18T13:44:11Z</time>
      </trkpt>
      <trkpt lat="44.03814" lon="6.45909">
        <ele>1087</ele>
        <time>2011-08-18T13:44:26Z</time>
      </trkpt>
      <trkpt lat="44.03796" lon="6.46005">
        <ele>1086</ele>
        <time>2011-08-18T13:44:34Z</time>
      </trkpt>
      <trkpt lat="44.03778" lon="6.46051">
        <ele>1084</ele>
        <time>2011-08-18T13:44:38Z</time>
      </trkpt>
      <trkpt lat="44.03771" lon="6.46101">
        <ele>1088</ele>
        <time>2011-08-18T13:44:42Z</time>
      </trkpt>
      <trkpt lat="44.03752" lon="6.46171">
        <ele>1087</ele>
        <time>2011-08-18T13:44:48Z</time>
      </trkpt>
      <trkpt lat="44.03724" lon="6.46201">
        <ele>1084</ele>
        <time>2011-08-18T13:44:52Z</time>
      </trkpt>
      <trkpt lat="44.0363" lon="6.46266">
        <ele>1077</ele>
        <time>2011-08-18T13:45:04Z</time>
      </trkpt>
      <trkpt lat="44.03587" lon="6.46321">
        <ele>1070</ele>
        <time>2011-08-18T13:45:11Z</time>
      </trkpt>
      <trkpt lat="44.03581" lon="6.46378">
        <ele>1078</ele>
        <time>2011-08-18T13:45:16Z</time>
      </trkpt>
      <trkpt lat="44.03588" lon="6.46412">
        <ele>1072</ele>
        <time>2011-08-18T13:45:19Z</time>
      </trkpt>
      <trkpt lat="44.0358" lon="6.46478">
        <ele>1077</ele>
        <time>2011-08-18T13:45:26Z</time>
      </trkpt>
      <trkpt lat="44.03565" lon="6.46509">
        <ele>1076</ele>
        <time>2011-08-18T13:45:30Z</time>
      </trkpt>
      <trkpt lat="44.0355" lon="6.46558">
        <ele>1079</ele>
        <time>2011-08-18T13:45:35Z</time>
      </trkpt>
      <trkpt lat="44.03516" lon="6.4673">
        <ele>1073</ele>
        <time>2011-08-18T13:45:52Z</time>
      </trkpt>
      <trkpt lat="44.03462" lon="6.46859">
        <ele>1069</ele>
        <time>2011-08-18T13:46:06Z</time>
      </trkpt>
      <trkpt lat="44.03441" lon="6.46945">
        <ele>1068</ele>
        <time>2011-08-18T13:46:15Z</time>
      </trkpt>
      <trkpt lat="44.03441" lon="6.47019">
        <ele>1070</ele>
        <time>2011-08-18T13:46:22Z</time>
      </trkpt>
      <trkpt lat="44.03434" lon="6.47079">
        <ele>1066</ele>
        <time>2011-08-18T13:46:28Z</time>
      </trkpt>
      <trkpt lat="44.03435" lon="6.4722">
        <ele>1072</ele>
        <time>2011-08-18T13:46:44Z</time>
      </trkpt>
      <trkpt lat="44.03438" lon="6.4735">
        <ele>1068</ele>
        <time>2011-08-18T13:46:58Z</time>
      </trkpt>
      <trkpt lat="44.03439" lon="6.4745">
        <ele>1066</ele>
        <time>2011-08-18T13:47:09Z</time>
      </trkpt>
      <trkpt lat="44.03447" lon="6.47604">
        <ele>1058</ele>
        <time>2011-08-18T13:47:27Z</time>
      </trkpt>
      <trkpt lat="44.03451" lon="6.47647">
        <ele>1058</ele>
        <time>2011-08-18T13:47:32Z</time>
      </trkpt>
      <trkpt lat="44.03465" lon="6.47699">
        <ele>1057</ele>
        <time>2011-08-18T13:47:38Z</time>
      </trkpt>
      <trkpt lat="44.03466" lon="6.4774">
        <ele>1056</ele>
        <time>2011-08-18T13:47:43Z</time>
      </trkpt>
      <trkpt lat="44.03429" lon="6.47881">
        <ele>1053</ele>
        <time>2011-08-18T13:48:01Z</time>
      </trkpt>
      <trkpt lat="44.0342" lon="6.4793">
        <ele>1049</ele>
        <time>2011-08-18T13:48:07Z</time>
      </trkpt>
      <trkpt lat="44.03421" lon="6.48043">
        <ele>1064</ele>
        <time>2011-08-18T13:48:21Z</time>
      </trkpt>
      <trkpt lat="44.03407" lon="6.48118">
        <ele>1047</ele>
        <time>2011-08-18T13:48:31Z</time>
      </trkpt>
      <trkpt lat="44.03413" lon="6.4824">
        <ele>1042</ele>
        <time>2011-08-18T13:48:46Z</time>
      </trkpt>
      <trkpt lat="44.03422" lon="6.48317">
        <ele>1049</ele>
        <time>2011-08-18T13:48:56Z</time>
      </trkpt>
      <trkpt lat="44.03422" lon="6.48459">
        <ele>1032</ele>
        <time>2011-08-18T13:49:13Z</time>
      </trkpt>
      <trkpt lat="44.03422" lon="6.48563">
        <ele>1014</ele>
        <time>2011-08-18T13:49:28Z</time>
      </trkpt>
      <trkpt lat="44.03425" lon="6.48615">
        <ele>1020</ele>
        <time>2011-08-18T13:49:36Z</time>
      </trkpt>
      <trkpt lat="44.03437" lon="6.48632">
        <ele>1023</ele>
        <time>2011-08-18T13:49:41Z</time>
      </trkpt>
      <trkpt lat="44.03496" lon="6.48627">
        <ele>1022</ele>
        <time>2011-08-18T13:49:53Z</time>
      </trkpt>
      <trkpt lat="44.03552" lon="6.48635">
        <ele>1017</ele>
        <time>2011-08-18T13:50:05Z</time>
      </trkpt>
      <trkpt lat="44.03565" lon="6.48637">
        <ele>1016</ele>
        <time>2011-08-18T13:50:08Z</time>
      </trkpt>
      <trkpt lat="44.03589" lon="6.48649">
        <ele>1016</ele>
        <time>2011-08-18T13:50:13Z</time>
      </trkpt>
      <trkpt lat="44.0361" lon="6.48676">
        <ele>1021</ele>
        <time>2011-08-18T13:50:19Z</time>
      </trkpt>
      <trkpt lat="44.03622" lon="6.48695">
        <ele>1023</ele>
        <time>2011-08-18T13:50:23Z</time>
      </trkpt>
      <trkpt lat="44.03652" lon="6.48724">
        <ele>1023</ele>
        <time>2011-08-18T13:50:29Z</time>
      </trkpt>
      <trkpt lat="44.03676" lon="6.48737">
        <ele>1021</ele>
        <time>2011-08-18T13:50:33Z</time>
      </trkpt>
      <trkpt lat="44.03723" lon="6.48731">
        <ele>1023</ele>
        <time>2011-08-18T13:50:44Z</time>
      </trkpt>
      <trkpt lat="44.03778" lon="6.48705">
        <ele>1030</ele>
        <time>2011-08-18T13:50:57Z</time>
      </trkpt>
      <trkpt lat="44.03815" lon="6.48661">
        <ele>1023</ele>
        <time>2011-08-18T13:51:11Z</time>
      </trkpt>
      <trkpt lat="44.03819" lon="6.48658">
        <ele>1023</ele>
        <time>2011-08-18T13:51:12Z</time>
      </trkpt>
      <trkpt lat="44.03834" lon="6.48648">
        <ele>1024</ele>
        <time>2011-08-18T13:51:16Z</time>
      </trkpt>
      <trkpt lat="44.03846" lon="6.48643">
        <ele>1024</ele>
        <time>2011-08-18T13:51:19Z</time>
      </trkpt>
      <trkpt lat="44.0391" lon="6.48643">
        <ele>1028</ele>
        <time>2011-08-18T13:51:33Z</time>
      </trkpt>
      <trkpt lat="44.03933" lon="6.48643">
        <ele>1032</ele>
        <time>2011-08-18T13:51:38Z</time>
      </trkpt>
      <trkpt lat="44.03959" lon="6.48639">
        <ele>1032</ele>
        <time>2011-08-18T13:51:44Z</time>
      </trkpt>
      <trkpt lat="44.03989" lon="6.48625">
        <ele>1032</ele>
        <time>2011-08-18T13:51:50Z</time>
      </trkpt>
      <trkpt lat="44.04051" lon="6.48563">
        <ele>1031</ele>
        <time>2011-08-18T13:52:06Z</time>
      </trkpt>
      <trkpt lat="44.04068" lon="6.48546">
        <ele>1031</ele>
        <time>2011-08-18T13:52:10Z</time>
      </trkpt>
      <trkpt lat="44.04101" lon="6.48506">
        <ele>1032</ele>
        <time>2011-08-18T13:52:20Z</time>
      </trkpt>
      <trkpt lat="44.04109" lon="6.48499">
        <ele>1027</ele>
        <time>2011-08-18T13:52:22Z</time>
      </trkpt>
      <trkpt lat="44.04124" lon="6.48489">
        <ele>1028</ele>
        <time>2011-08-18T13:52:25Z</time>
      </trkpt>
      <trkpt lat="44.04143" lon="6.48482">
        <ele>1029</ele>
        <time>2011-08-18T13:52:29Z</time>
      </trkpt>
      <trkpt lat="44.04173" lon="6.48475">
        <ele>1030</ele>
        <time>2011-08-18T13:52:35Z</time>
      </trkpt>
      <trkpt lat="44.04223" lon="6.48469">
        <ele>1031</ele>
        <time>2011-08-18T13:52:45Z</time>
      </trkpt>
      <trkpt lat="44.04269" lon="6.48484">
        <ele>1036</ele>
        <time>2011-08-18T13:52:55Z</time>
      </trkpt>
      <trkpt lat="44.04273" lon="6.48487">
        <ele>1036</ele>
        <time>2011-08-18T13:52:56Z</time>
      </trkpt>
      <trkpt lat="44.0429" lon="6.48486">
        <ele>1036</ele>
        <time>2011-08-18T13:52:59Z</time>
      </trkpt>
      <trkpt lat="44.04317" lon="6.48461">
        <ele>1034</ele>
        <time>2011-08-18T13:53:07Z</time>
      </trkpt>
      <trkpt lat="44.04336" lon="6.48427">
        <ele>1032</ele>
        <time>2011-08-18T13:53:14Z</time>
      </trkpt>
      <trkpt lat="44.04384" lon="6.4838">
        <ele>1028</ele>
        <time>2011-08-18T13:53:27Z</time>
      </trkpt>
      <trkpt lat="44.04393" lon="6.48377">
        <ele>1028</ele>
        <time>2011-08-18T13:53:29Z</time>
      </trkpt>
      <trkpt lat="44.04413" lon="6.48381">
        <ele>1029</ele>
        <time>2011-08-18T13:53:34Z</time>
      </trkpt>
      <trkpt lat="44.04447" lon="6.48401">
        <ele>1033</ele>
        <time>2011-08-18T13:53:41Z</time>
      </trkpt>
      <trkpt lat="44.04466" lon="6.48412">
        <ele>1033</ele>
        <time>2011-08-18T13:53:45Z</time>
      </trkpt>
      <trkpt lat="44.04479" lon="6.48417">
        <ele>1048</ele>
        <time>2011-08-18T13:53:48Z</time>
      </trkpt>
      <trkpt lat="44.04511" lon="6.48403">
        <ele>1040</ele>
        <time>2011-08-18T13:53:55Z</time>
      </trkpt>
      <trkpt lat="44.04519" lon="6.48391">
        <ele>1041</ele>
        <time>2011-08-18T13:53:58Z</time>
      </trkpt>
      <trkpt lat="44.0454" lon="6.48348">
        <ele>1039</ele>
        <time>2011-08-18T13:54:07Z</time>
      </trkpt>
      <trkpt lat="44.04571" lon="6.48309">
        <ele>1035</ele>
        <time>2011-08-18T13:54:16Z</time>
      </trkpt>
      <trkpt lat="44.04586" lon="6.48296">
        <ele>1041</ele>
        <time>2011-08-18T13:54:20Z</time>
      </trkpt>
      <trkpt lat="44.04603" lon="6.4829">
        <ele>1042</ele>
        <time>2011-08-18T13:54:24Z</time>
      </trkpt>
      <trkpt lat="44.0464" lon="6.48286">
        <ele>1044</ele>
        <time>2011-08-18T13:54:32Z</time>
      </trkpt>
      <trkpt lat="44.04664" lon="6.48282">
        <ele>1044</ele>
        <time>2011-08-18T13:54:37Z</time>
      </trkpt>
      <trkpt lat="44.04721" lon="6.48225">
        <ele>1042</ele>
        <time>2011-08-18T13:54:53Z</time>
      </trkpt>
      <trkpt lat="44.04728" lon="6.48219">
        <ele>1042</ele>
        <time>2011-08-18T13:54:55Z</time>
      </trkpt>
      <trkpt lat="44.04782" lon="6.48195">
        <ele>1045</ele>
        <time>2011-08-18T13:55:09Z</time>
      </trkpt>
      <trkpt lat="44.04817" lon="6.48185">
        <ele>1044</ele>
        <time>2011-08-18T13:55:18Z</time>
      </trkpt>
      <trkpt lat="44.04854" lon="6.48175">
        <ele>1047</ele>
        <time>2011-08-18T13:55:27Z</time>
      </trkpt>
      <trkpt lat="44.04908" lon="6.48179">
        <ele>1046</ele>
        <time>2011-08-18T13:55:40Z</time>
      </trkpt>
      <trkpt lat="44.04977" lon="6.48174">
        <ele>1050</ele>
        <time>2011-08-18T13:55:51Z</time>
      </trkpt>
      <trkpt lat="44.05026" lon="6.48173">
        <ele>1048</ele>
        <time>2011-08-18T13:56:01Z</time>
      </trkpt>
      <trkpt lat="44.05036" lon="6.48175">
        <ele>1049</ele>
        <time>2011-08-18T13:56:03Z</time>
      </trkpt>
      <trkpt lat="44.05047" lon="6.4818">
        <ele>1049</ele>
        <time>2011-08-18T13:56:05Z</time>
      </trkpt>
      <trkpt lat="44.05079" lon="6.48205">
        <ele>1050</ele>
        <time>2011-08-18T13:56:11Z</time>
      </trkpt>
      <trkpt lat="44.05108" lon="6.48224">
        <ele>1049</ele>
        <time>2011-08-18T13:56:17Z</time>
      </trkpt>
      <trkpt lat="44.05156" lon="6.4826">
        <ele>1052</ele>
        <time>2011-08-18T13:56:30Z</time>
      </trkpt>
      <trkpt lat="44.05214" lon="6.48296">
        <ele>1056</ele>
        <time>2011-08-18T13:56:43Z</time>
      </trkpt>
      <trkpt lat="44.0525" lon="6.48314">
        <ele>1058</ele>
        <time>2011-08-18T13:56:52Z</time>
      </trkpt>
      <trkpt lat="44.05318" lon="6.48311">
        <ele>1058</ele>
        <time>2011-08-18T13:57:05Z</time>
      </trkpt>
      <trkpt lat="44.05397" lon="6.48266">
        <ele>1058</ele>
        <time>2011-08-18T13:57:20Z</time>
      </trkpt>
      <trkpt lat="44.05476" lon="6.48243">
        <ele>1053</ele>
        <time>2011-08-18T13:57:35Z</time>
      </trkpt>
      <trkpt lat="44.05526" lon="6.4825">
        <ele>1057</ele>
        <time>2011-08-18T13:57:43Z</time>
      </trkpt>
      <trkpt lat="44.05559" lon="6.48274">
        <ele>1059</ele>
        <time>2011-08-18T13:57:51Z</time>
      </trkpt>
      <trkpt lat="44.05611" lon="6.48312">
        <ele>1059</ele>
        <time>2011-08-18T13:58:05Z</time>
      </trkpt>
      <trkpt lat="44.05625" lon="6.48317">
        <ele>1058</ele>
        <time>2011-08-18T13:58:08Z</time>
      </trkpt>
      <trkpt lat="44.05666" lon="6.48319">
        <ele>1060</ele>
        <time>2011-08-18T13:58:16Z</time>
      </trkpt>
      <trkpt lat="44.05746" lon="6.4829">
        <ele>1059</ele>
        <time>2011-08-18T13:58:31Z</time>
      </trkpt>
      <trkpt lat="44.05812" lon="6.4825">
        <ele>1053</ele>
        <time>2011-08-18T13:58:45Z</time>
      </trkpt>
      <trkpt lat="44.05833" lon="6.48236">
        <ele>1054</ele>
        <time>2011-08-18T13:58:50Z</time>
      </trkpt>
      <trkpt lat="44.059" lon="6.48219">
        <ele>1058</ele>
        <time>2011-08-18T13:59:04Z</time>
      </trkpt>
      <trkpt lat="44.05955" lon="6.48189">
        <ele>1060</ele>
        <time>2011-08-18T13:59:16Z</time>
      </trkpt>
      <trkpt lat="44.06015" lon="6.48187">
        <ele>1065</ele>
        <time>2011-08-18T13:59:28Z</time>
      </trkpt>
      <trkpt lat="44.06089" lon="6.48155">
        <ele>1059</ele>
        <time>2011-08-18T13:59:42Z</time>
      </trkpt>
      <trkpt lat="44.06173" lon="6.48129">
        <ele>1060</ele>
        <time>2011-08-18T13:59:59Z</time>
      </trkpt>
      <trkpt lat="44.06235" lon="6.48129">
        <ele>1060</ele>
        <time>2011-08-18T14:00:11Z</time>
      </trkpt>
      <trkpt lat="44.0624" lon="6.4813">
        <ele>1060</ele>
        <time>2011-08-18T14:00:12Z</time>
      </trkpt>
      <trkpt lat="44.06321" lon="6.48113">
        <ele>1063</ele>
        <time>2011-08-18T14:00:28Z</time>
      </trkpt>
      <trkpt lat="44.06414" lon="6.48087">
        <ele>1060</ele>
        <time>2011-08-18T14:00:47Z</time>
      </trkpt>
      <trkpt lat="44.06493" lon="6.48075">
        <ele>1058</ele>
        <time>2011-08-18T14:01:03Z</time>
      </trkpt>
      <trkpt lat="44.06587" lon="6.48078">
        <ele>1060</ele>
        <time>2011-08-18T14:01:22Z</time>
      </trkpt>
      <trkpt lat="44.06659" lon="6.48081">
        <ele>1058</ele>
        <time>2011-08-18T14:01:37Z</time>
      </trkpt>
      <trkpt lat="44.06758" lon="6.48104">
        <ele>1064</ele>
        <time>2011-08-18T14:01:57Z</time>
      </trkpt>
      <trkpt lat="44.06825" lon="6.48146">
        <ele>1067</ele>
        <time>2011-08-18T14:02:14Z</time>
      </trkpt>
      <trkpt lat="44.06904" lon="6.48214">
        <ele>1080</ele>
        <time>2011-08-18T14:02:33Z</time>
      </trkpt>
      <trkpt lat="44.06963" lon="6.48262">
        <ele>1087</ele>
        <time>2011-08-18T14:02:48Z</time>
      </trkpt>
      <trkpt lat="44.06988" lon="6.48261">
        <ele>1080</ele>
        <time>2011-08-18T14:02:54Z</time>
      </trkpt>
      <trkpt lat="44.07062" lon="6.48198">
        <ele>1066</ele>
        <time>2011-08-18T14:03:12Z</time>
      </trkpt>
      <trkpt lat="44.07142" lon="6.48117">
        <ele>1064</ele>
        <time>2011-08-18T14:03:31Z</time>
      </trkpt>
      <trkpt lat="44.07225" lon="6.48026">
        <ele>1064</ele>
        <time>2011-08-18T14:03:51Z</time>
      </trkpt>
      <trkpt lat="44.07303" lon="6.47939">
        <ele>1064</ele>
        <time>2011-08-18T14:04:10Z</time>
      </trkpt>
      <trkpt lat="44.07362" lon="6.47876">
        <ele>1069</ele>
        <time>2011-08-18T14:04:25Z</time>
      </trkpt>
      <trkpt lat="44.07395" lon="6.47857">
        <ele>1071</ele>
        <time>2011-08-18T14:04:34Z</time>
      </trkpt>
      <trkpt lat="44.0741" lon="6.47862">
        <ele>1072</ele>
        <time>2011-08-18T14:04:38Z</time>
      </trkpt>
      <trkpt lat="44.07492" lon="6.4792">
        <ele>1076</ele>
        <time>2011-08-18T14:05:00Z</time>
      </trkpt>
      <trkpt lat="44.07559" lon="6.47965">
        <ele>1078</ele>
        <time>2011-08-18T14:05:19Z</time>
      </trkpt>
      <trkpt lat="44.07582" lon="6.47978">
        <ele>1077</ele>
        <time>2011-08-18T14:05:25Z</time>
      </trkpt>
      <trkpt lat="44.07635" lon="6.47981">
        <ele>1078</ele>
        <time>2011-08-18T14:05:37Z</time>
      </trkpt>
      <trkpt lat="44.07651" lon="6.47975">
        <ele>1078</ele>
        <time>2011-08-18T14:05:41Z</time>
      </trkpt>
      <trkpt lat="44.07718" lon="6.47957">
        <ele>1079</ele>
        <time>2011-08-18T14:05:57Z</time>
      </trkpt>
      <trkpt lat="44.07781" lon="6.47972">
        <ele>1081</ele>
        <time>2011-08-18T14:06:12Z</time>
      </trkpt>
      <trkpt lat="44.07785" lon="6.47973">
        <ele>1081</ele>
        <time>2011-08-18T14:06:13Z</time>
      </trkpt>
      <trkpt lat="44.07856" lon="6.47971">
        <ele>1085</ele>
        <time>2011-08-18T14:06:31Z</time>
      </trkpt>
      <trkpt lat="44.07933" lon="6.47969">
        <ele>1088</ele>
        <time>2011-08-18T14:06:51Z</time>
      </trkpt>
      <trkpt lat="44.07993" lon="6.47953">
        <ele>1089</ele>
        <time>2011-08-18T14:07:07Z</time>
      </trkpt>
      <trkpt lat="44.08065" lon="6.47925">
        <ele>1091</ele>
        <time>2011-08-18T14:07:25Z</time>
      </trkpt>
      <trkpt lat="44.08126" lon="6.47909">
        <ele>1094</ele>
        <time>2011-08-18T14:07:38Z</time>
      </trkpt>
      <trkpt lat="44.08141" lon="6.47907">
        <ele>1093</ele>
        <time>2011-08-18T14:07:41Z</time>
      </trkpt>
      <trkpt lat="44.0824" lon="6.47883">
        <ele>1094</ele>
        <time>2011-08-18T14:08:01Z</time>
      </trkpt>
      <trkpt lat="44.08244" lon="6.47883">
        <ele>1094</ele>
        <time>2011-08-18T14:08:02Z</time>
      </trkpt>
      <trkpt lat="44.08339" lon="6.47911">
        <ele>1095</ele>
        <time>2011-08-18T14:08:25Z</time>
      </trkpt>
      <trkpt lat="44.08433" lon="6.47944">
        <ele>1095</ele>
        <time>2011-08-18T14:08:50Z</time>
      </trkpt>
      <trkpt lat="44.08456" lon="6.47949">
        <ele>1095</ele>
        <time>2011-08-18T14:08:56Z</time>
      </trkpt>
      <trkpt lat="44.08517" lon="6.4794">
        <ele>1096</ele>
        <time>2011-08-18T14:09:11Z</time>
      </trkpt>
      <trkpt lat="44.08525" lon="6.47935">
        <ele>1096</ele>
        <time>2011-08-18T14:09:13Z</time>
      </trkpt>
      <trkpt lat="44.08552" lon="6.47932">
        <ele>1097</ele>
        <time>2011-08-18T14:09:19Z</time>
      </trkpt>
      <trkpt lat="44.08599" lon="6.47945">
        <ele>1099</ele>
        <time>2011-08-18T14:09:35Z</time>
      </trkpt>
      <trkpt lat="44.08599" lon="6.47944">
        <ele>1099</ele>
        <time>2011-08-18T14:10:41Z</time>
      </trkpt>
      <trkpt lat="44.08621" lon="6.47947">
        <ele>1100</ele>
        <time>2011-08-18T14:11:09Z</time>
      </trkpt>
      <trkpt lat="44.08632" lon="6.47958">
        <ele>1100</ele>
        <time>2011-08-18T14:11:13Z</time>
      </trkpt>
      <trkpt lat="44.08643" lon="6.47971">
        <ele>1100</ele>
        <time>2011-08-18T14:11:17Z</time>
      </trkpt>
      <trkpt lat="44.08652" lon="6.47984">
        <ele>1100</ele>
        <time>2011-08-18T14:11:20Z</time>
      </trkpt>
      <trkpt lat="44.08674" lon="6.48005">
        <ele>1100</ele>
        <time>2011-08-18T14:11:29Z</time>
      </trkpt>
      <trkpt lat="44.08675" lon="6.48009">
        <ele>1100</ele>
        <time>2011-08-18T14:11:30Z</time>
      </trkpt>
      <trkpt lat="44.087" lon="6.48026">
        <ele>1101</ele>
        <time>2011-08-18T14:11:37Z</time>
      </trkpt>
      <trkpt lat="44.08734" lon="6.48038">
        <ele>1101</ele>
        <time>2011-08-18T14:11:48Z</time>
      </trkpt>
      <trkpt lat="44.08796" lon="6.48058">
        <ele>1105</ele>
        <time>2011-08-18T14:12:03Z</time>
      </trkpt>
      <trkpt lat="44.088" lon="6.4806">
        <ele>1105</ele>
        <time>2011-08-18T14:12:04Z</time>
      </trkpt>
      <trkpt lat="44.08848" lon="6.48065">
        <ele>1111</ele>
        <time>2011-08-18T14:12:18Z</time>
      </trkpt>
      <trkpt lat="44.08882" lon="6.48068">
        <ele>1114</ele>
        <time>2011-08-18T14:12:32Z</time>
      </trkpt>
      <trkpt lat="44.08885" lon="6.4807">
        <ele>1114</ele>
        <time>2011-08-18T14:12:33Z</time>
      </trkpt>
      <trkpt lat="44.08929" lon="6.48103">
        <ele>1114</ele>
        <time>2011-08-18T14:12:47Z</time>
      </trkpt>
      <trkpt lat="44.08967" lon="6.48145">
        <ele>1115</ele>
        <time>2011-08-18T14:13:01Z</time>
      </trkpt>
      <trkpt lat="44.08993" lon="6.48164">
        <ele>1115</ele>
        <time>2011-08-18T14:13:13Z</time>
      </trkpt>
      <trkpt lat="44.08994" lon="6.48165">
        <ele>1114</ele>
        <time>2011-08-18T14:13:14Z</time>
      </trkpt>
      <trkpt lat="44.09023" lon="6.48184">
        <ele>1116</ele>
        <time>2011-08-18T14:13:26Z</time>
      </trkpt>
      <trkpt lat="44.09044" lon="6.48185">
        <ele>1119</ele>
        <time>2011-08-18T14:13:34Z</time>
      </trkpt>
      <trkpt lat="44.09053" lon="6.48192">
        <ele>1119</ele>
        <time>2011-08-18T14:13:38Z</time>
      </trkpt>
      <trkpt lat="44.0909" lon="6.48212">
        <ele>1130</ele>
        <time>2011-08-18T14:13:51Z</time>
      </trkpt>
      <trkpt lat="44.09112" lon="6.48227">
        <ele>1129</ele>
        <time>2011-08-18T14:14:00Z</time>
      </trkpt>
      <trkpt lat="44.09135" lon="6.48248">
        <ele>1130</ele>
        <time>2011-08-18T14:14:10Z</time>
      </trkpt>
      <trkpt lat="44.09138" lon="6.48254">
        <ele>1117</ele>
        <time>2011-08-18T14:14:12Z</time>
      </trkpt>
      <trkpt lat="44.09153" lon="6.48254">
        <ele>1120</ele>
        <time>2011-08-18T14:14:18Z</time>
      </trkpt>
      <trkpt lat="44.09182" lon="6.48275">
        <ele>1131</ele>
        <time>2011-08-18T14:14:30Z</time>
      </trkpt>
      <trkpt lat="44.09213" lon="6.48301">
        <ele>1132</ele>
        <time>2011-08-18T14:14:42Z</time>
      </trkpt>
      <trkpt lat="44.09246" lon="6.4835">
        <ele>1120</ele>
        <time>2011-08-18T14:14:56Z</time>
      </trkpt>
      <trkpt lat="44.09287" lon="6.48382">
        <ele>1122</ele>
        <time>2011-08-18T14:15:09Z</time>
      </trkpt>
      <trkpt lat="44.09293" lon="6.48389">
        <ele>1122</ele>
        <time>2011-08-18T14:15:22Z</time>
      </trkpt>
      <trkpt lat="44.093" lon="6.48399">
        <ele>1122</ele>
        <time>2011-08-18T14:15:37Z</time>
      </trkpt>
      <trkpt lat="44.09304" lon="6.48405">
        <ele>1122</ele>
        <time>2011-08-18T14:15:46Z</time>
      </trkpt>
      <trkpt lat="44.09312" lon="6.48408">
        <ele>1122</ele>
        <time>2011-08-18T14:15:50Z</time>
      </trkpt>
      <trkpt lat="44.0934" lon="6.48417">
        <ele>1125</ele>
        <time>2011-08-18T14:16:04Z</time>
      </trkpt>
      <trkpt lat="44.09354" lon="6.48439">
        <ele>1134</ele>
        <time>2011-08-18T14:16:12Z</time>
      </trkpt>
      <trkpt lat="44.09356" lon="6.48445">
        <ele>1135</ele>
        <time>2011-08-18T14:16:14Z</time>
      </trkpt>
      <trkpt lat="44.09375" lon="6.48474">
        <ele>1139</ele>
        <time>2011-08-18T14:16:27Z</time>
      </trkpt>
      <trkpt lat="44.09382" lon="6.48488">
        <ele>1141</ele>
        <time>2011-08-18T14:16:31Z</time>
      </trkpt>
      <trkpt lat="44.09391" lon="6.48531">
        <ele>1138</ele>
        <time>2011-08-18T14:16:46Z</time>
      </trkpt>
      <trkpt lat="44.09392" lon="6.48541">
        <ele>1138</ele>
        <time>2011-08-18T14:16:50Z</time>
      </trkpt>
      <trkpt lat="44.09399" lon="6.48557">
        <ele>1138</ele>
        <time>2011-08-18T14:16:58Z</time>
      </trkpt>
      <trkpt lat="44.09399" lon="6.48571">
        <ele>1139</ele>
        <time>2011-08-18T14:17:01Z</time>
      </trkpt>
      <trkpt lat="44.09402" lon="6.48615">
        <ele>1135</ele>
        <time>2011-08-18T14:17:14Z</time>
      </trkpt>
      <trkpt lat="44.09405" lon="6.48635">
        <ele>1135</ele>
        <time>2011-08-18T14:17:26Z</time>
      </trkpt>
      <trkpt lat="44.09408" lon="6.48646">
        <ele>1135</ele>
        <time>2011-08-18T14:17:41Z</time>
      </trkpt>
      <trkpt lat="44.09409" lon="6.48649">
        <ele>1135</ele>
        <time>2011-08-18T14:17:47Z</time>
      </trkpt>
      <trkpt lat="44.09413" lon="6.48657">
        <ele>1136</ele>
        <time>2011-08-18T14:17:51Z</time>
      </trkpt>
      <trkpt lat="44.09415" lon="6.48661">
        <ele>1136</ele>
        <time>2011-08-18T14:17:53Z</time>
      </trkpt>
      <trkpt lat="44.09416" lon="6.48669">
        <ele>1137</ele>
        <time>2011-08-18T14:17:56Z</time>
      </trkpt>
      <trkpt lat="44.09421" lon="6.48693">
        <ele>1145</ele>
        <time>2011-08-18T14:18:05Z</time>
      </trkpt>
      <trkpt lat="44.09426" lon="6.48699">
        <ele>1146</ele>
        <time>2011-08-18T14:18:09Z</time>
      </trkpt>
      <trkpt lat="44.09445" lon="6.48731">
        <ele>1147</ele>
        <time>2011-08-18T14:18:21Z</time>
      </trkpt>
      <trkpt lat="44.09448" lon="6.48762">
        <ele>1141</ele>
        <time>2011-08-18T14:18:30Z</time>
      </trkpt>
      <trkpt lat="44.0946" lon="6.4879">
        <ele>1144</ele>
        <time>2011-08-18T14:18:39Z</time>
      </trkpt>
      <trkpt lat="44.09461" lon="6.48818">
        <ele>1145</ele>
        <time>2011-08-18T14:18:47Z</time>
      </trkpt>
      <trkpt lat="44.09461" lon="6.48821">
        <ele>1145</ele>
        <time>2011-08-18T14:18:48Z</time>
      </trkpt>
      <trkpt lat="44.09458" lon="6.48841">
        <ele>1144</ele>
        <time>2011-08-18T14:18:52Z</time>
      </trkpt>
      <trkpt lat="44.09452" lon="6.4886">
        <ele>1142</ele>
        <time>2011-08-18T14:18:58Z</time>
      </trkpt>
      <trkpt lat="44.09453" lon="6.48885">
        <ele>1143</ele>
        <time>2011-08-18T14:19:09Z</time>
      </trkpt>
      <trkpt lat="44.09455" lon="6.48901">
        <ele>1143</ele>
        <time>2011-08-18T14:19:21Z</time>
      </trkpt>
      <trkpt lat="44.09456" lon="6.48903">
        <ele>1143</ele>
        <time>2011-08-18T14:19:22Z</time>
      </trkpt>
      <trkpt lat="44.09456" lon="6.48913">
        <ele>1143</ele>
        <time>2011-08-18T14:19:25Z</time>
      </trkpt>
      <trkpt lat="44.0946" lon="6.48921">
        <ele>1146</ele>
        <time>2011-08-18T14:19:29Z</time>
      </trkpt>
      <trkpt lat="44.09458" lon="6.48944">
        <ele>1146</ele>
        <time>2011-08-18T14:19:39Z</time>
      </trkpt>
      <trkpt lat="44.09455" lon="6.48951">
        <ele>1146</ele>
        <time>2011-08-18T14:19:42Z</time>
      </trkpt>
      <trkpt lat="44.09454" lon="6.48975">
        <ele>1146</ele>
        <time>2011-08-18T14:19:49Z</time>
      </trkpt>
      <trkpt lat="44.09459" lon="6.48987">
        <ele>1148</ele>
        <time>2011-08-18T14:19:55Z</time>
      </trkpt>
      <trkpt lat="44.09455" lon="6.49006">
        <ele>1149</ele>
        <time>2011-08-18T14:20:05Z</time>
      </trkpt>
      <trkpt lat="44.09455" lon="6.4902">
        <ele>1149</ele>
        <time>2011-08-18T14:20:20Z</time>
      </trkpt>
      <trkpt lat="44.09453" lon="6.49035">
        <ele>1149</ele>
        <time>2011-08-18T14:20:32Z</time>
      </trkpt>
      <trkpt lat="44.09452" lon="6.49057">
        <ele>1149</ele>
        <time>2011-08-18T14:20:38Z</time>
      </trkpt>
      <trkpt lat="44.09453" lon="6.49098">
        <ele>1149</ele>
        <time>2011-08-18T14:20:50Z</time>
      </trkpt>
      <trkpt lat="44.09453" lon="6.49136">
        <ele>1149</ele>
        <time>2011-08-18T14:21:00Z</time>
      </trkpt>
      <trkpt lat="44.09452" lon="6.49144">
        <ele>1149</ele>
        <time>2011-08-18T14:21:02Z</time>
      </trkpt>
      <trkpt lat="44.09452" lon="6.49168">
        <ele>1147</ele>
        <time>2011-08-18T14:21:12Z</time>
      </trkpt>
      <trkpt lat="44.09451" lon="6.49173">
        <ele>1146</ele>
        <time>2011-08-18T14:21:15Z</time>
      </trkpt>
      <trkpt lat="44.09452" lon="6.49181">
        <ele>1147</ele>
        <time>2011-08-18T14:21:20Z</time>
      </trkpt>
      <trkpt lat="44.09453" lon="6.49193">
        <ele>1147</ele>
        <time>2011-08-18T14:21:25Z</time>
      </trkpt>
      <trkpt lat="44.09456" lon="6.49211">
        <ele>1148</ele>
        <time>2011-08-18T14:21:33Z</time>
      </trkpt>
      <trkpt lat="44.0946" lon="6.49227">
        <ele>1148</ele>
        <time>2011-08-18T14:21:46Z</time>
      </trkpt>
      <trkpt lat="44.0946" lon="6.49241">
        <ele>1148</ele>
        <time>2011-08-18T14:22:01Z</time>
      </trkpt>
      <trkpt lat="44.09467" lon="6.49265">
        <ele>1146</ele>
        <time>2011-08-18T14:22:20Z</time>
      </trkpt>
      <trkpt lat="44.09475" lon="6.49271">
        <ele>1148</ele>
        <time>2011-08-18T14:22:34Z</time>
      </trkpt>
      <trkpt lat="44.09482" lon="6.49275">
        <ele>1148</ele>
        <time>2011-08-18T14:22:55Z</time>
      </trkpt>
      <trkpt lat="44.09501" lon="6.49292">
        <ele>1168</ele>
        <time>2011-08-18T14:23:22Z</time>
      </trkpt>
      <trkpt lat="44.09506" lon="6.49296">
        <ele>1168</ele>
        <time>2011-08-18T14:23:29Z</time>
      </trkpt>
      <trkpt lat="44.0952" lon="6.49301">
        <ele>1169</ele>
        <time>2011-08-18T14:23:46Z</time>
      </trkpt>
      <trkpt lat="44.09519" lon="6.49309">
        <ele>1168</ele>
        <time>2011-08-18T14:23:52Z</time>
      </trkpt>
      <trkpt lat="44.09514" lon="6.49334">
        <ele>1159</ele>
        <time>2011-08-18T14:24:10Z</time>
      </trkpt>
      <trkpt lat="44.09513" lon="6.49358">
        <ele>1163</ele>
        <time>2011-08-18T14:24:34Z</time>
      </trkpt>
      <trkpt lat="44.09516" lon="6.49373">
        <ele>1165</ele>
        <time>2011-08-18T14:24:49Z</time>
      </trkpt>
      <trkpt lat="44.09519" lon="6.49394">
        <ele>1165</ele>
        <time>2011-08-18T14:25:08Z</time>
      </trkpt>
      <trkpt lat="44.09523" lon="6.49404">
        <ele>1165</ele>
        <time>2011-08-18T14:25:18Z</time>
      </trkpt>
      <trkpt lat="44.09521" lon="6.49425">
        <ele>1167</ele>
        <time>2011-08-18T14:25:31Z</time>
      </trkpt>
      <trkpt lat="44.09521" lon="6.49447">
        <ele>1169</ele>
        <time>2011-08-18T14:25:44Z</time>
      </trkpt>
      <trkpt lat="44.09523" lon="6.49463">
        <ele>1170</ele>
        <time>2011-08-18T14:25:57Z</time>
      </trkpt>
      <trkpt lat="44.0952" lon="6.49477">
        <ele>1169</ele>
        <time>2011-08-18T14:26:13Z</time>
      </trkpt>
      <trkpt lat="44.09521" lon="6.49495">
        <ele>1167</ele>
        <time>2011-08-18T14:26:28Z</time>
      </trkpt>
      <trkpt lat="44.09519" lon="6.4953">
        <ele>1171</ele>
        <time>2011-08-18T14:26:41Z</time>
      </trkpt>
      <trkpt lat="44.09519" lon="6.49572">
        <ele>1169</ele>
        <time>2011-08-18T14:26:58Z</time>
      </trkpt>
      <trkpt lat="44.09515" lon="6.49613">
        <ele>1171</ele>
        <time>2011-08-18T14:27:10Z</time>
      </trkpt>
      <trkpt lat="44.09515" lon="6.49684">
        <ele>1168</ele>
        <time>2011-08-18T14:27:25Z</time>
      </trkpt>
      <trkpt lat="44.09517" lon="6.49745">
        <ele>1166</ele>
        <time>2011-08-18T14:27:39Z</time>
      </trkpt>
      <trkpt lat="44.09517" lon="6.49767">
        <ele>1165</ele>
        <time>2011-08-18T14:27:45Z</time>
      </trkpt>
      <trkpt lat="44.09523" lon="6.49798">
        <ele>1166</ele>
        <time>2011-08-18T14:27:50Z</time>
      </trkpt>
      <trkpt lat="44.09529" lon="6.4982">
        <ele>1165</ele>
        <time>2011-08-18T14:27:53Z</time>
      </trkpt>
      <trkpt lat="44.09534" lon="6.49847">
        <ele>1162</ele>
        <time>2011-08-18T14:27:56Z</time>
      </trkpt>
      <trkpt lat="44.09534" lon="6.49896">
        <ele>1161</ele>
        <time>2011-08-18T14:28:04Z</time>
      </trkpt>
      <trkpt lat="44.09539" lon="6.49923">
        <ele>1157</ele>
        <time>2011-08-18T14:28:08Z</time>
      </trkpt>
      <trkpt lat="44.09546" lon="6.49954">
        <ele>1158</ele>
        <time>2011-08-18T14:28:14Z</time>
      </trkpt>
      <trkpt lat="44.09554" lon="6.49978">
        <ele>1158</ele>
        <time>2011-08-18T14:28:19Z</time>
      </trkpt>
      <trkpt lat="44.09533" lon="6.49998">
        <ele>1153</ele>
        <time>2011-08-18T14:28:25Z</time>
      </trkpt>
      <trkpt lat="44.09493" lon="6.50009">
        <ele>1141</ele>
        <time>2011-08-18T14:28:31Z</time>
      </trkpt>
      <trkpt lat="44.09452" lon="6.50033">
        <ele>1140</ele>
        <time>2011-08-18T14:28:43Z</time>
      </trkpt>
      <trkpt lat="44.09448" lon="6.50035">
        <ele>1140</ele>
        <time>2011-08-18T14:28:44Z</time>
      </trkpt>
      <trkpt lat="44.0942" lon="6.50025">
        <ele>1140</ele>
        <time>2011-08-18T14:28:49Z</time>
      </trkpt>
      <trkpt lat="44.09393" lon="6.50008">
        <ele>1139</ele>
        <time>2011-08-18T14:28:54Z</time>
      </trkpt>
      <trkpt lat="44.09335" lon="6.5">
        <ele>1136</ele>
        <time>2011-08-18T14:29:05Z</time>
      </trkpt>
      <trkpt lat="44.09317" lon="6.49999">
        <ele>1136</ele>
        <time>2011-08-18T14:29:09Z</time>
      </trkpt>
      <trkpt lat="44.09298" lon="6.49996">
        <ele>1137</ele>
        <time>2011-08-18T14:29:13Z</time>
      </trkpt>
      <trkpt lat="44.09247" lon="6.49981">
        <ele>1138</ele>
        <time>2011-08-18T14:29:24Z</time>
      </trkpt>
      <trkpt lat="44.09201" lon="6.49926">
        <ele>1138</ele>
        <time>2011-08-18T14:29:38Z</time>
      </trkpt>
      <trkpt lat="44.09168" lon="6.49923">
        <ele>1138</ele>
        <time>2011-08-18T14:29:48Z</time>
      </trkpt>
      <trkpt lat="44.09119" lon="6.49947">
        <ele>1134</ele>
        <time>2011-08-18T14:30:04Z</time>
      </trkpt>
      <trkpt lat="44.09088" lon="6.49949">
        <ele>1133</ele>
        <time>2011-08-18T14:30:13Z</time>
      </trkpt>
      <trkpt lat="44.0907" lon="6.49939">
        <ele>1129</ele>
        <time>2011-08-18T14:30:18Z</time>
      </trkpt>
      <trkpt lat="44.09069" lon="6.4995">
        <ele>1129</ele>
        <time>2011-08-18T14:30:24Z</time>
      </trkpt>
      <trkpt lat="44.09083" lon="6.50016">
        <ele>1132</ele>
        <time>2011-08-18T14:30:38Z</time>
      </trkpt>
      <trkpt lat="44.09086" lon="6.50063">
        <ele>1131</ele>
        <time>2011-08-18T14:30:54Z</time>
      </trkpt>
    </trkseg>
  </trk>
</gpx>